<?xml version="1.0" encoding="UTF-8" standalone="no" ?>
<gpx xmlns="http://www.topografix.com/GPX/1/1" xmlns:xsi="http://www.w3.org/2001/XMLSchema-instance" xsi:schemaLocation="http://www.topografix.com/GPX/1/1 http://www.topografix.com/GPX/1/1/gpx.xsd" version="1.1" creator="VisuGPX - https://www.visugpx.com">
  <metadata>
    <name>Balade sud Brommat</name>
    <desc><![CDATA[testaaaaaaaaaaaaaaaaaaaaaaaaaaaaaaaaaaazaaaaaaaaaaaaaaaaaaaaaa]]></desc>
  </metadata>
  <trk>
    <name><![CDATA[20180502223022-lyKzn]]></name>
    <trkseg>
      <trkpt lat="44.71064" lon="2.5922">
        <ele>673</ele>
        <time>2018-04-26T19:07:44Z</time>
      </trkpt>
      <trkpt lat="44.71095" lon="2.59255">
        <ele>671</ele>
      </trkpt>
      <trkpt lat="44.71095" lon="2.59255">
        <ele>671</ele>
      </trkpt>
      <trkpt lat="44.71126" lon="2.59329">
        <ele>669</ele>
      </trkpt>
      <trkpt lat="44.71194" lon="2.59463">
        <ele>649</ele>
      </trkpt>
      <trkpt lat="44.7124" lon="2.59496">
        <ele>645</ele>
      </trkpt>
      <trkpt lat="44.71316" lon="2.59455">
        <ele>644</ele>
      </trkpt>
      <trkpt lat="44.71367" lon="2.59443">
        <ele>644</ele>
      </trkpt>
      <trkpt lat="44.71393" lon="2.59627">
        <ele>615</ele>
      </trkpt>
      <trkpt lat="44.71422" lon="2.59663">
        <ele>618</ele>
      </trkpt>
      <trkpt lat="44.71525" lon="2.59666">
        <ele>627</ele>
      </trkpt>
      <trkpt lat="44.71583" lon="2.59719">
        <ele>604</ele>
      </trkpt>
      <trkpt lat="44.71442" lon="2.59737">
        <ele>595</ele>
      </trkpt>
      <trkpt lat="44.71441" lon="2.59737">
        <ele>595</ele>
      </trkpt>
      <trkpt lat="44.71363" lon="2.59736">
        <ele>584</ele>
      </trkpt>
      <trkpt lat="44.71328" lon="2.59667">
        <ele>592</ele>
      </trkpt>
      <trkpt lat="44.71276" lon="2.59667">
        <ele>585</ele>
      </trkpt>
      <trkpt lat="44.71232" lon="2.59722">
        <ele>575</ele>
      </trkpt>
      <trkpt lat="44.71237" lon="2.59743">
        <ele>570</ele>
      </trkpt>
      <trkpt lat="44.71257" lon="2.59744">
        <ele>569</ele>
      </trkpt>
      <trkpt lat="44.71309" lon="2.59709">
        <ele>579</ele>
      </trkpt>
      <trkpt lat="44.71318" lon="2.59752">
        <ele>561</ele>
      </trkpt>
      <trkpt lat="44.71376" lon="2.59845">
        <ele>538</ele>
      </trkpt>
      <trkpt lat="44.71374" lon="2.59845">
        <ele>538</ele>
      </trkpt>
      <trkpt lat="44.71602" lon="2.59886">
        <ele>561</ele>
      </trkpt>
      <trkpt lat="44.71692" lon="2.60153">
        <ele>519</ele>
      </trkpt>
      <trkpt lat="44.7173" lon="2.6021">
        <ele>505</ele>
      </trkpt>
      <trkpt lat="44.71849" lon="2.6024">
        <ele>501</ele>
      </trkpt>
      <trkpt lat="44.71919" lon="2.60196">
        <ele>504</ele>
      </trkpt>
      <trkpt lat="44.72064" lon="2.60182">
        <ele>503</ele>
      </trkpt>
      <trkpt lat="44.72189" lon="2.60146">
        <ele>509</ele>
      </trkpt>
      <trkpt lat="44.72273" lon="2.60154">
        <ele>499</ele>
      </trkpt>
      <trkpt lat="44.72316" lon="2.60124">
        <ele>501</ele>
      </trkpt>
      <trkpt lat="44.72564" lon="2.60342">
        <ele>403</ele>
      </trkpt>
      <trkpt lat="44.72564" lon="2.60342">
        <ele>403</ele>
      </trkpt>
      <trkpt lat="44.72573" lon="2.60346">
        <ele>403</ele>
        <time>2018-04-19T06:29:47Z</time>
      </trkpt>
      <trkpt lat="44.72777" lon="2.60432">
        <ele>370</ele>
        <time>2018-04-19T06:28:47Z</time>
      </trkpt>
      <trkpt lat="44.72902" lon="2.60402">
        <ele>393</ele>
        <time>2018-04-19T06:27:47Z</time>
      </trkpt>
      <trkpt lat="44.72966" lon="2.60346">
        <ele>406</ele>
        <time>2018-04-19T06:26:47Z</time>
      </trkpt>
      <trkpt lat="44.73027" lon="2.60492">
        <ele>412</ele>
        <time>2018-04-19T06:25:47Z</time>
      </trkpt>
      <trkpt lat="44.73161" lon="2.60509">
        <ele>442</ele>
        <time>2018-04-19T06:24:47Z</time>
      </trkpt>
      <trkpt lat="44.73232" lon="2.60715">
        <ele>444</ele>
        <time>2018-04-19T06:23:47Z</time>
      </trkpt>
      <trkpt lat="44.73204" lon="2.60814">
        <ele>440</ele>
        <time>2018-04-19T06:22:47Z</time>
      </trkpt>
      <trkpt lat="44.73253" lon="2.60955">
        <ele>483</ele>
        <time>2018-04-19T06:21:47Z</time>
      </trkpt>
      <trkpt lat="44.73338" lon="2.61221">
        <ele>510</ele>
        <time>2018-04-19T06:20:47Z</time>
      </trkpt>
      <trkpt lat="44.73338" lon="2.61427">
        <ele>501</ele>
        <time>2018-04-19T06:19:47Z</time>
      </trkpt>
      <trkpt lat="44.73384" lon="2.6141">
        <ele>511</ele>
        <time>2018-04-19T06:18:47Z</time>
      </trkpt>
      <trkpt lat="44.73399" lon="2.6144">
        <ele>502</ele>
        <time>2018-04-19T06:17:47Z</time>
      </trkpt>
      <trkpt lat="44.7353" lon="2.6138">
        <ele>514</ele>
        <time>2018-04-19T06:16:47Z</time>
      </trkpt>
      <trkpt lat="44.73619" lon="2.61354">
        <ele>521</ele>
        <time>2018-04-19T06:15:47Z</time>
      </trkpt>
      <trkpt lat="44.73588" lon="2.61462">
        <ele>512</ele>
        <time>2018-04-19T06:14:47Z</time>
      </trkpt>
      <trkpt lat="44.73542" lon="2.61655">
        <ele>484</ele>
        <time>2018-04-19T06:13:47Z</time>
      </trkpt>
      <trkpt lat="44.73521" lon="2.61754">
        <ele>476</ele>
        <time>2018-04-19T06:12:47Z</time>
      </trkpt>
      <trkpt lat="44.73564" lon="2.61814">
        <ele>488</ele>
        <time>2018-04-19T06:11:47Z</time>
      </trkpt>
      <trkpt lat="44.73585" lon="2.6202">
        <ele>511</ele>
        <time>2018-04-19T06:10:47Z</time>
      </trkpt>
      <trkpt lat="44.736" lon="2.62123">
        <ele>510</ele>
        <time>2018-04-19T06:09:47Z</time>
      </trkpt>
      <trkpt lat="44.73695" lon="2.62114">
        <ele>536</ele>
        <time>2018-04-19T06:08:47Z</time>
      </trkpt>
      <trkpt lat="44.7385" lon="2.62161">
        <ele>565</ele>
        <time>2018-04-19T06:07:47Z</time>
      </trkpt>
      <trkpt lat="44.73872" lon="2.62204">
        <ele>550</ele>
        <time>2018-04-19T06:06:47Z</time>
      </trkpt>
      <trkpt lat="44.73875" lon="2.62256">
        <ele>529</ele>
        <time>2018-04-19T06:05:47Z</time>
      </trkpt>
      <trkpt lat="44.73866" lon="2.62324">
        <ele>516</ele>
        <time>2018-04-19T06:04:47Z</time>
      </trkpt>
      <trkpt lat="44.73899" lon="2.62389">
        <ele>493</ele>
        <time>2018-04-19T06:03:47Z</time>
      </trkpt>
      <trkpt lat="44.7396" lon="2.62376">
        <ele>523</ele>
        <time>2018-04-19T06:02:47Z</time>
      </trkpt>
      <trkpt lat="44.73948" lon="2.62518">
        <ele>479</ele>
        <time>2018-04-19T06:01:47Z</time>
      </trkpt>
      <trkpt lat="44.74036" lon="2.62603">
        <ele>517</ele>
        <time>2018-04-19T06:00:47Z</time>
      </trkpt>
      <trkpt lat="44.7407" lon="2.62723">
        <ele>528</ele>
        <time>2018-04-19T05:59:47Z</time>
      </trkpt>
      <trkpt lat="44.74079" lon="2.62848">
        <ele>543</ele>
        <time>2018-04-19T05:58:47Z</time>
      </trkpt>
      <trkpt lat="44.74137" lon="2.63097">
        <ele>520</ele>
        <time>2018-04-19T05:57:47Z</time>
      </trkpt>
      <trkpt lat="44.74225" lon="2.63281">
        <ele>492</ele>
        <time>2018-04-19T05:56:47Z</time>
      </trkpt>
      <trkpt lat="44.7439" lon="2.63273">
        <ele>501</ele>
        <time>2018-04-19T05:55:47Z</time>
      </trkpt>
      <trkpt lat="44.74344" lon="2.63367">
        <ele>503</ele>
        <time>2018-04-19T05:54:47Z</time>
      </trkpt>
      <trkpt lat="44.7421" lon="2.635">
        <ele>497</ele>
        <time>2018-04-19T05:53:47Z</time>
      </trkpt>
      <trkpt lat="44.74049" lon="2.63522">
        <ele>526</ele>
        <time>2018-04-19T05:52:47Z</time>
      </trkpt>
      <trkpt lat="44.73972" lon="2.63522">
        <ele>526</ele>
        <time>2018-04-19T05:51:47Z</time>
      </trkpt>
      <trkpt lat="44.74058" lon="2.63595">
        <ele>539</ele>
        <time>2018-04-19T05:50:47Z</time>
      </trkpt>
      <trkpt lat="44.74116" lon="2.63638">
        <ele>554</ele>
        <time>2018-04-19T05:49:47Z</time>
      </trkpt>
      <trkpt lat="44.74183" lon="2.63676">
        <ele>573</ele>
        <time>2018-04-19T05:48:47Z</time>
      </trkpt>
      <trkpt lat="44.74341" lon="2.63728">
        <ele>607</ele>
        <time>2018-04-19T05:47:47Z</time>
      </trkpt>
      <trkpt lat="44.74689" lon="2.63814">
        <ele>676</ele>
        <time>2018-04-19T05:46:47Z</time>
      </trkpt>
      <trkpt lat="44.74933" lon="2.63994">
        <ele>717</ele>
        <time>2018-04-19T05:45:47Z</time>
      </trkpt>
      <trkpt lat="44.75048" lon="2.64071">
        <ele>714</ele>
        <time>2018-04-19T05:44:47Z</time>
      </trkpt>
      <trkpt lat="44.75198" lon="2.64054">
        <ele>732</ele>
        <time>2018-04-19T05:43:47Z</time>
      </trkpt>
      <trkpt lat="44.75371" lon="2.64324">
        <ele>746</ele>
        <time>2018-04-19T05:42:47Z</time>
      </trkpt>
      <trkpt lat="44.75454" lon="2.64191">
        <ele>762</ele>
        <time>2018-04-19T05:41:47Z</time>
      </trkpt>
      <trkpt lat="44.75576" lon="2.64496">
        <ele>763</ele>
        <time>2018-04-19T05:40:47Z</time>
      </trkpt>
      <trkpt lat="44.7567" lon="2.6447">
        <ele>756</ele>
        <time>2018-04-19T05:39:47Z</time>
      </trkpt>
      <trkpt lat="44.75707" lon="2.64539">
        <ele>755</ele>
        <time>2018-04-19T05:38:47Z</time>
      </trkpt>
      <trkpt lat="44.75688" lon="2.64693">
        <ele>754</ele>
        <time>2018-04-19T05:37:47Z</time>
      </trkpt>
      <trkpt lat="44.75795" lon="2.64831">
        <ele>739</ele>
        <time>2018-04-19T05:36:47Z</time>
      </trkpt>
      <trkpt lat="44.75841" lon="2.64959">
        <ele>741</ele>
        <time>2018-04-19T05:35:47Z</time>
      </trkpt>
      <trkpt lat="44.7592" lon="2.65054">
        <ele>744</ele>
        <time>2018-04-19T05:34:47Z</time>
      </trkpt>
      <trkpt lat="44.76027" lon="2.65234">
        <ele>749</ele>
        <time>2018-04-19T05:33:47Z</time>
      </trkpt>
      <trkpt lat="44.76075" lon="2.6517">
        <ele>748</ele>
        <time>2018-04-19T05:32:47Z</time>
      </trkpt>
      <trkpt lat="44.76115" lon="2.65165">
        <ele>746</ele>
        <time>2018-04-19T05:31:47Z</time>
      </trkpt>
      <trkpt lat="44.76182" lon="2.6511">
        <ele>744</ele>
        <time>2018-04-19T05:30:47Z</time>
      </trkpt>
      <trkpt lat="44.76337" lon="2.65011">
        <ele>741</ele>
        <time>2018-04-19T05:29:47Z</time>
      </trkpt>
      <trkpt lat="44.76325" lon="2.64904">
        <ele>738</ele>
        <time>2018-04-19T05:28:47Z</time>
      </trkpt>
      <trkpt lat="44.76468" lon="2.64818">
        <ele>734</ele>
        <time>2018-04-19T05:27:47Z</time>
      </trkpt>
      <trkpt lat="44.76535" lon="2.64616">
        <ele>725</ele>
        <time>2018-04-19T05:26:47Z</time>
      </trkpt>
      <trkpt lat="44.76593" lon="2.64496">
        <ele>730</ele>
        <time>2018-04-19T05:25:47Z</time>
      </trkpt>
      <trkpt lat="44.76724" lon="2.64474">
        <ele>742</ele>
        <time>2018-04-19T05:24:47Z</time>
      </trkpt>
      <trkpt lat="44.76913" lon="2.64221">
        <ele>750</ele>
        <time>2018-04-19T05:23:47Z</time>
      </trkpt>
      <trkpt lat="44.77102" lon="2.6405">
        <ele>742</ele>
        <time>2018-04-19T05:22:47Z</time>
      </trkpt>
      <trkpt lat="44.77148" lon="2.63964">
        <ele>735</ele>
        <time>2018-04-19T05:21:47Z</time>
      </trkpt>
      <trkpt lat="44.77227" lon="2.63929">
        <ele>729</ele>
        <time>2018-04-19T05:20:47Z</time>
      </trkpt>
      <trkpt lat="44.77337" lon="2.63977">
        <ele>724</ele>
        <time>2018-04-19T05:19:47Z</time>
      </trkpt>
      <trkpt lat="44.77379" lon="2.63959">
        <ele>725</ele>
        <time>2018-04-19T05:18:47Z</time>
      </trkpt>
      <trkpt lat="44.77388" lon="2.63904">
        <ele>727</ele>
        <time>2018-04-19T05:17:47Z</time>
      </trkpt>
      <trkpt lat="44.77456" lon="2.63947">
        <ele>735</ele>
        <time>2018-04-19T05:16:47Z</time>
      </trkpt>
      <trkpt lat="44.77529" lon="2.63856">
        <ele>753</ele>
        <time>2018-04-19T05:15:47Z</time>
      </trkpt>
      <trkpt lat="44.77532" lon="2.63856">
        <ele>753</ele>
        <time>2018-04-19T05:14:47Z</time>
      </trkpt>
      <trkpt lat="44.77593" lon="2.63839">
        <ele>762</ele>
        <time>2018-04-19T05:13:47Z</time>
      </trkpt>
      <trkpt lat="44.77687" lon="2.63904">
        <ele>762</ele>
        <time>2018-04-19T05:12:47Z</time>
      </trkpt>
      <trkpt lat="44.77763" lon="2.63977">
        <ele>764</ele>
        <time>2018-04-19T05:11:47Z</time>
      </trkpt>
      <trkpt lat="44.77919" lon="2.64024">
        <ele>769</ele>
        <time>2018-04-19T05:10:47Z</time>
      </trkpt>
      <trkpt lat="44.7794" lon="2.63891">
        <ele>770</ele>
        <time>2018-04-19T05:09:47Z</time>
      </trkpt>
      <trkpt lat="44.77952" lon="2.63762">
        <ele>771</ele>
        <time>2018-04-19T05:08:47Z</time>
      </trkpt>
      <trkpt lat="44.77953" lon="2.63763">
        <ele>771</ele>
        <time>2018-04-19T05:07:47Z</time>
      </trkpt>
      <trkpt lat="44.77953" lon="2.63764">
        <ele>771</ele>
        <time>2018-04-19T05:06:47Z</time>
      </trkpt>
      <trkpt lat="44.77946" lon="2.63737">
        <ele>772</ele>
        <time>2018-04-19T05:05:47Z</time>
      </trkpt>
      <trkpt lat="44.77983" lon="2.63624">
        <ele>771</ele>
        <time>2018-04-19T05:04:47Z</time>
      </trkpt>
      <trkpt lat="44.78025" lon="2.63641">
        <ele>770</ele>
        <time>2018-04-19T05:03:47Z</time>
      </trkpt>
      <trkpt lat="44.78054" lon="2.63595">
        <ele>770</ele>
        <time>2018-04-19T05:02:47Z</time>
      </trkpt>
      <trkpt lat="44.78091" lon="2.63548">
        <ele>769</ele>
        <time>2018-04-19T05:01:47Z</time>
      </trkpt>
      <trkpt lat="44.78081" lon="2.63499">
        <ele>770</ele>
        <time>2018-04-19T05:00:47Z</time>
      </trkpt>
      <trkpt lat="44.78071" lon="2.63452">
        <ele>769</ele>
        <time>2018-04-19T04:59:47Z</time>
      </trkpt>
      <trkpt lat="44.78047" lon="2.63405">
        <ele>768</ele>
        <time>2018-04-19T04:58:47Z</time>
      </trkpt>
      <trkpt lat="44.78017" lon="2.63374">
        <ele>768</ele>
        <time>2018-04-19T04:57:47Z</time>
      </trkpt>
      <trkpt lat="44.77969" lon="2.63338">
        <ele>768</ele>
        <time>2018-04-19T04:56:47Z</time>
      </trkpt>
      <trkpt lat="44.78016" lon="2.63273">
        <ele>767</ele>
        <time>2018-04-19T04:55:47Z</time>
      </trkpt>
      <trkpt lat="44.78062" lon="2.63213">
        <ele>766</ele>
        <time>2018-04-19T04:54:47Z</time>
      </trkpt>
      <trkpt lat="44.78108" lon="2.63175">
        <ele>765</ele>
        <time>2018-04-19T04:53:47Z</time>
      </trkpt>
      <trkpt lat="44.78156" lon="2.63156">
        <ele>762</ele>
        <time>2018-04-19T04:52:47Z</time>
      </trkpt>
      <trkpt lat="44.78241" lon="2.63139">
        <ele>759</ele>
        <time>2018-04-19T04:51:47Z</time>
      </trkpt>
      <trkpt lat="44.7833" lon="2.63117">
        <ele>757</ele>
        <time>2018-04-19T04:50:47Z</time>
      </trkpt>
      <trkpt lat="44.78381" lon="2.6309">
        <ele>754</ele>
        <time>2018-04-19T04:49:47Z</time>
      </trkpt>
      <trkpt lat="44.78439" lon="2.63044">
        <ele>747</ele>
        <time>2018-04-19T04:48:47Z</time>
      </trkpt>
      <trkpt lat="44.7846" lon="2.63014">
        <ele>747</ele>
        <time>2018-04-19T04:47:47Z</time>
      </trkpt>
      <trkpt lat="44.78486" lon="2.62951">
        <ele>746</ele>
        <time>2018-04-19T04:46:47Z</time>
      </trkpt>
      <trkpt lat="44.78512" lon="2.62908">
        <ele>744</ele>
        <time>2018-04-19T04:45:47Z</time>
      </trkpt>
      <trkpt lat="44.78543" lon="2.62872">
        <ele>741</ele>
        <time>2018-04-19T04:44:47Z</time>
      </trkpt>
      <trkpt lat="44.78564" lon="2.62844">
        <ele>740</ele>
        <time>2018-04-19T04:43:47Z</time>
      </trkpt>
      <trkpt lat="44.78565" lon="2.62817">
        <ele>737</ele>
        <time>2018-04-19T04:42:47Z</time>
      </trkpt>
      <trkpt lat="44.78549" lon="2.62783">
        <ele>735</ele>
        <time>2018-04-19T04:41:47Z</time>
      </trkpt>
      <trkpt lat="44.78535" lon="2.62753">
        <ele>735</ele>
        <time>2018-04-19T04:40:47Z</time>
      </trkpt>
      <trkpt lat="44.78533" lon="2.6273">
        <ele>733</ele>
        <time>2018-04-19T04:39:47Z</time>
      </trkpt>
      <trkpt lat="44.78547" lon="2.627">
        <ele>733</ele>
        <time>2018-04-19T04:38:47Z</time>
      </trkpt>
      <trkpt lat="44.78588" lon="2.62668">
        <ele>732</ele>
        <time>2018-04-19T04:37:47Z</time>
      </trkpt>
      <trkpt lat="44.78684" lon="2.62574">
        <ele>740</ele>
        <time>2018-04-19T04:36:47Z</time>
      </trkpt>
      <trkpt lat="44.78727" lon="2.62522">
        <ele>741</ele>
        <time>2018-04-19T04:35:47Z</time>
      </trkpt>
      <trkpt lat="44.78759" lon="2.62462">
        <ele>741</ele>
        <time>2018-04-19T04:34:47Z</time>
      </trkpt>
      <trkpt lat="44.78785" lon="2.6241">
        <ele>737</ele>
        <time>2018-04-19T04:33:47Z</time>
      </trkpt>
      <trkpt lat="44.78807" lon="2.62379">
        <ele>737</ele>
        <time>2018-04-19T04:32:47Z</time>
      </trkpt>
      <trkpt lat="44.78868" lon="2.62344">
        <ele>740</ele>
        <time>2018-04-19T04:31:47Z</time>
      </trkpt>
      <trkpt lat="44.78885" lon="2.62309">
        <ele>736</ele>
        <time>2018-04-19T04:30:47Z</time>
      </trkpt>
      <trkpt lat="44.78891" lon="2.62284">
        <ele>735</ele>
        <time>2018-04-19T04:29:47Z</time>
      </trkpt>
      <trkpt lat="44.78913" lon="2.62251">
        <ele>734</ele>
        <time>2018-04-19T04:28:47Z</time>
      </trkpt>
      <trkpt lat="44.78954" lon="2.62199">
        <ele>730</ele>
        <time>2018-04-19T04:27:47Z</time>
      </trkpt>
      <trkpt lat="44.7892" lon="2.62183">
        <ele>730</ele>
        <time>2018-04-19T04:26:47Z</time>
      </trkpt>
      <trkpt lat="44.78917" lon="2.62145">
        <ele>725</ele>
        <time>2018-04-19T04:25:47Z</time>
      </trkpt>
      <trkpt lat="44.78912" lon="2.62097">
        <ele>721</ele>
        <time>2018-04-19T04:24:47Z</time>
      </trkpt>
      <trkpt lat="44.78923" lon="2.62065">
        <ele>717</ele>
        <time>2018-04-19T04:23:47Z</time>
      </trkpt>
      <trkpt lat="44.78987" lon="2.62069">
        <ele>715</ele>
        <time>2018-04-19T04:22:47Z</time>
      </trkpt>
      <trkpt lat="44.78986" lon="2.6206">
        <ele>714</ele>
        <time>2018-04-19T04:21:47Z</time>
      </trkpt>
      <trkpt lat="44.78969" lon="2.62044">
        <ele>713</ele>
        <time>2018-04-19T04:20:47Z</time>
      </trkpt>
      <trkpt lat="44.78938" lon="2.62022">
        <ele>712</ele>
        <time>2018-04-19T04:19:47Z</time>
      </trkpt>
      <trkpt lat="44.78912" lon="2.61995">
        <ele>708</ele>
        <time>2018-04-19T04:18:47Z</time>
      </trkpt>
      <trkpt lat="44.78875" lon="2.61961">
        <ele>698</ele>
        <time>2018-04-19T04:17:47Z</time>
      </trkpt>
      <trkpt lat="44.78871" lon="2.6195">
        <ele>697</ele>
        <time>2018-04-19T04:16:47Z</time>
      </trkpt>
      <trkpt lat="44.78891" lon="2.61943">
        <ele>696</ele>
        <time>2018-04-19T04:15:47Z</time>
      </trkpt>
      <trkpt lat="44.78906" lon="2.61939">
        <ele>694</ele>
        <time>2018-04-19T04:14:47Z</time>
      </trkpt>
      <trkpt lat="44.7892" lon="2.61963">
        <ele>696</ele>
        <time>2018-04-19T04:13:47Z</time>
      </trkpt>
      <trkpt lat="44.78938" lon="2.61974">
        <ele>698</ele>
        <time>2018-04-19T04:12:47Z</time>
      </trkpt>
      <trkpt lat="44.78962" lon="2.61973">
        <ele>695</ele>
        <time>2018-04-19T04:11:47Z</time>
      </trkpt>
      <trkpt lat="44.78991" lon="2.61963">
        <ele>692</ele>
        <time>2018-04-19T04:10:47Z</time>
      </trkpt>
      <trkpt lat="44.79023" lon="2.61957">
        <ele>680</ele>
        <time>2018-04-19T04:09:47Z</time>
      </trkpt>
      <trkpt lat="44.79067" lon="2.61984">
        <ele>680</ele>
        <time>2018-04-19T04:08:47Z</time>
      </trkpt>
      <trkpt lat="44.7906" lon="2.61968">
        <ele>678</ele>
        <time>2018-04-19T04:07:47Z</time>
      </trkpt>
      <trkpt lat="44.79038" lon="2.61945">
        <ele>676</ele>
        <time>2018-04-19T04:06:47Z</time>
      </trkpt>
      <trkpt lat="44.7902" lon="2.6193">
        <ele>676</ele>
        <time>2018-04-19T04:05:47Z</time>
      </trkpt>
      <trkpt lat="44.79005" lon="2.6192">
        <ele>674</ele>
        <time>2018-04-19T04:04:47Z</time>
      </trkpt>
      <trkpt lat="44.7899" lon="2.6192">
        <ele>680</ele>
        <time>2018-04-19T04:03:47Z</time>
      </trkpt>
      <trkpt lat="44.78966" lon="2.61919">
        <ele>687</ele>
        <time>2018-04-19T04:02:47Z</time>
      </trkpt>
      <trkpt lat="44.78951" lon="2.61907">
        <ele>670</ele>
        <time>2018-04-19T04:01:47Z</time>
      </trkpt>
      <trkpt lat="44.78936" lon="2.61863">
        <ele>665</ele>
        <time>2018-04-19T04:00:47Z</time>
      </trkpt>
      <trkpt lat="44.78916" lon="2.61823">
        <ele>658</ele>
        <time>2018-04-19T03:59:47Z</time>
      </trkpt>
      <trkpt lat="44.78897" lon="2.61791">
        <ele>649</ele>
        <time>2018-04-19T03:58:47Z</time>
      </trkpt>
      <trkpt lat="44.78874" lon="2.61761">
        <ele>645</ele>
        <time>2018-04-19T03:57:47Z</time>
      </trkpt>
      <trkpt lat="44.78861" lon="2.61747">
        <ele>626</ele>
        <time>2018-04-19T03:56:47Z</time>
      </trkpt>
      <trkpt lat="44.78847" lon="2.61743">
        <ele>629</ele>
        <time>2018-04-19T03:55:47Z</time>
      </trkpt>
      <trkpt lat="44.7883" lon="2.61752">
        <ele>637</ele>
        <time>2018-04-19T03:54:47Z</time>
      </trkpt>
      <trkpt lat="44.78793" lon="2.61777">
        <ele>634</ele>
        <time>2018-04-19T03:53:47Z</time>
      </trkpt>
      <trkpt lat="44.78767" lon="2.61821">
        <ele>636</ele>
        <time>2018-04-19T03:52:47Z</time>
      </trkpt>
      <trkpt lat="44.78738" lon="2.61851">
        <ele>645</ele>
        <time>2018-04-19T03:51:47Z</time>
      </trkpt>
      <trkpt lat="44.78713" lon="2.61863">
        <ele>650</ele>
        <time>2018-04-19T03:50:47Z</time>
      </trkpt>
      <trkpt lat="44.78687" lon="2.61844">
        <ele>645</ele>
        <time>2018-04-19T03:49:47Z</time>
      </trkpt>
      <trkpt lat="44.78663" lon="2.61815">
        <ele>623</ele>
        <time>2018-04-19T03:48:47Z</time>
      </trkpt>
      <trkpt lat="44.78632" lon="2.61795">
        <ele>614</ele>
        <time>2018-04-19T03:47:47Z</time>
      </trkpt>
      <trkpt lat="44.78589" lon="2.61772">
        <ele>607</ele>
        <time>2018-04-19T03:46:47Z</time>
      </trkpt>
      <trkpt lat="44.78574" lon="2.61774">
        <ele>608</ele>
        <time>2018-04-19T03:45:47Z</time>
      </trkpt>
      <trkpt lat="44.78563" lon="2.61782">
        <ele>611</ele>
        <time>2018-04-19T03:44:47Z</time>
      </trkpt>
      <trkpt lat="44.78558" lon="2.61807">
        <ele>616</ele>
        <time>2018-04-19T03:43:47Z</time>
      </trkpt>
      <trkpt lat="44.78553" lon="2.61796">
        <ele>614</ele>
        <time>2018-04-19T03:42:47Z</time>
      </trkpt>
      <trkpt lat="44.78554" lon="2.61778">
        <ele>610</ele>
        <time>2018-04-19T03:41:47Z</time>
      </trkpt>
      <trkpt lat="44.78559" lon="2.6176">
        <ele>607</ele>
        <time>2018-04-19T03:40:47Z</time>
      </trkpt>
      <trkpt lat="44.78572" lon="2.61743">
        <ele>591</ele>
        <time>2018-04-19T03:39:47Z</time>
      </trkpt>
      <trkpt lat="44.78596" lon="2.61743">
        <ele>589</ele>
        <time>2018-04-19T03:38:47Z</time>
      </trkpt>
      <trkpt lat="44.78613" lon="2.61752">
        <ele>606</ele>
        <time>2018-04-19T03:37:47Z</time>
      </trkpt>
      <trkpt lat="44.78636" lon="2.61763">
        <ele>607</ele>
        <time>2018-04-19T03:36:47Z</time>
      </trkpt>
      <trkpt lat="44.78659" lon="2.61769">
        <ele>604</ele>
        <time>2018-04-19T03:35:47Z</time>
      </trkpt>
      <trkpt lat="44.78709" lon="2.61775">
        <ele>614</ele>
        <time>2018-04-19T03:34:47Z</time>
      </trkpt>
      <trkpt lat="44.78717" lon="2.61769">
        <ele>613</ele>
        <time>2018-04-19T03:33:47Z</time>
      </trkpt>
      <trkpt lat="44.78723" lon="2.61759">
        <ele>612</ele>
        <time>2018-04-19T03:32:47Z</time>
      </trkpt>
      <trkpt lat="44.78731" lon="2.61738">
        <ele>593</ele>
        <time>2018-04-19T03:31:47Z</time>
      </trkpt>
      <trkpt lat="44.7874" lon="2.61701">
        <ele>584</ele>
        <time>2018-04-19T03:30:47Z</time>
      </trkpt>
      <trkpt lat="44.78753" lon="2.61676">
        <ele>587</ele>
        <time>2018-04-19T03:29:47Z</time>
      </trkpt>
      <trkpt lat="44.78766" lon="2.61657">
        <ele>575</ele>
        <time>2018-04-19T03:28:47Z</time>
      </trkpt>
      <trkpt lat="44.78779" lon="2.61635">
        <ele>572</ele>
        <time>2018-04-19T03:27:47Z</time>
      </trkpt>
      <trkpt lat="44.7879" lon="2.61609">
        <ele>568</ele>
        <time>2018-04-19T03:26:47Z</time>
      </trkpt>
      <trkpt lat="44.78802" lon="2.61583">
        <ele>544</ele>
        <time>2018-04-19T03:25:47Z</time>
      </trkpt>
      <trkpt lat="44.7881" lon="2.61578">
        <ele>546</ele>
        <time>2018-04-19T03:24:47Z</time>
      </trkpt>
      <trkpt lat="44.78828" lon="2.61577">
        <ele>555</ele>
        <time>2018-04-19T03:23:47Z</time>
      </trkpt>
      <trkpt lat="44.78871" lon="2.61574">
        <ele>544</ele>
        <time>2018-04-19T03:22:47Z</time>
      </trkpt>
      <trkpt lat="44.78896" lon="2.61576">
        <ele>543</ele>
        <time>2018-04-19T03:21:47Z</time>
      </trkpt>
      <trkpt lat="44.78947" lon="2.61606">
        <ele>554</ele>
        <time>2018-04-19T03:20:47Z</time>
      </trkpt>
      <trkpt lat="44.79021" lon="2.61649">
        <ele>545</ele>
        <time>2018-04-19T03:19:47Z</time>
      </trkpt>
      <trkpt lat="44.79072" lon="2.61661">
        <ele>537</ele>
        <time>2018-04-19T03:18:47Z</time>
      </trkpt>
      <trkpt lat="44.79092" lon="2.61661">
        <ele>535</ele>
        <time>2018-04-19T03:17:47Z</time>
      </trkpt>
      <trkpt lat="44.79127" lon="2.61615">
        <ele>536</ele>
        <time>2018-04-19T03:16:47Z</time>
      </trkpt>
      <trkpt lat="44.7914" lon="2.61605">
        <ele>537</ele>
        <time>2018-04-19T03:15:47Z</time>
      </trkpt>
      <trkpt lat="44.79156" lon="2.61603">
        <ele>537</ele>
        <time>2018-04-19T03:14:47Z</time>
      </trkpt>
      <trkpt lat="44.79162" lon="2.61592">
        <ele>537</ele>
        <time>2018-04-19T03:13:47Z</time>
      </trkpt>
      <trkpt lat="44.79152" lon="2.61583">
        <ele>543</ele>
        <time>2018-04-19T03:12:47Z</time>
      </trkpt>
      <trkpt lat="44.79098" lon="2.61584">
        <ele>535</ele>
        <time>2018-04-19T03:11:47Z</time>
      </trkpt>
      <trkpt lat="44.79079" lon="2.61577">
        <ele>534</ele>
        <time>2018-04-19T03:10:47Z</time>
      </trkpt>
      <trkpt lat="44.79071" lon="2.61566">
        <ele>535</ele>
        <time>2018-04-19T03:09:47Z</time>
      </trkpt>
      <trkpt lat="44.79059" lon="2.61518">
        <ele>540</ele>
        <time>2018-04-19T03:08:47Z</time>
      </trkpt>
      <trkpt lat="44.79052" lon="2.61496">
        <ele>550</ele>
        <time>2018-04-19T03:07:47Z</time>
      </trkpt>
      <trkpt lat="44.79052" lon="2.6143">
        <ele>557</ele>
        <time>2018-04-19T03:06:47Z</time>
      </trkpt>
      <trkpt lat="44.79047" lon="2.61408">
        <ele>573</ele>
        <time>2018-04-19T03:05:47Z</time>
      </trkpt>
      <trkpt lat="44.79038" lon="2.61394">
        <ele>573</ele>
        <time>2018-04-19T03:04:47Z</time>
      </trkpt>
      <trkpt lat="44.79012" lon="2.61391">
        <ele>569</ele>
        <time>2018-04-19T03:03:47Z</time>
      </trkpt>
      <trkpt lat="44.78973" lon="2.61381">
        <ele>559</ele>
        <time>2018-04-19T03:02:47Z</time>
      </trkpt>
      <trkpt lat="44.7896" lon="2.61366">
        <ele>561</ele>
        <time>2018-04-19T03:01:47Z</time>
      </trkpt>
      <trkpt lat="44.78942" lon="2.61337">
        <ele>563</ele>
        <time>2018-04-19T03:00:47Z</time>
      </trkpt>
      <trkpt lat="44.78913" lon="2.61282">
        <ele>574</ele>
        <time>2018-04-19T02:59:47Z</time>
      </trkpt>
      <trkpt lat="44.78899" lon="2.61263">
        <ele>578</ele>
        <time>2018-04-19T02:58:47Z</time>
      </trkpt>
      <trkpt lat="44.78887" lon="2.61237">
        <ele>593</ele>
        <time>2018-04-19T02:57:47Z</time>
      </trkpt>
      <trkpt lat="44.78873" lon="2.61224">
        <ele>593</ele>
        <time>2018-04-19T02:56:47Z</time>
      </trkpt>
      <trkpt lat="44.7885" lon="2.61211">
        <ele>593</ele>
        <time>2018-04-19T02:55:47Z</time>
      </trkpt>
      <trkpt lat="44.78825" lon="2.612">
        <ele>589</ele>
        <time>2018-04-19T02:54:47Z</time>
      </trkpt>
      <trkpt lat="44.78808" lon="2.612">
        <ele>589</ele>
        <time>2018-04-19T02:53:47Z</time>
      </trkpt>
      <trkpt lat="44.7879" lon="2.61198">
        <ele>589</ele>
        <time>2018-04-19T02:52:47Z</time>
      </trkpt>
      <trkpt lat="44.78771" lon="2.6119">
        <ele>591</ele>
        <time>2018-04-19T02:51:47Z</time>
      </trkpt>
      <trkpt lat="44.78754" lon="2.61179">
        <ele>596</ele>
        <time>2018-04-19T02:50:47Z</time>
      </trkpt>
      <trkpt lat="44.78723" lon="2.61191">
        <ele>581</ele>
        <time>2018-04-19T02:49:47Z</time>
      </trkpt>
      <trkpt lat="44.78705" lon="2.61195">
        <ele>578</ele>
        <time>2018-04-19T02:48:47Z</time>
      </trkpt>
      <trkpt lat="44.78695" lon="2.61181">
        <ele>578</ele>
        <time>2018-04-19T02:47:47Z</time>
      </trkpt>
      <trkpt lat="44.78679" lon="2.61152">
        <ele>584</ele>
        <time>2018-04-19T02:46:47Z</time>
      </trkpt>
      <trkpt lat="44.78672" lon="2.61095">
        <ele>581</ele>
        <time>2018-04-19T02:45:47Z</time>
      </trkpt>
      <trkpt lat="44.78715" lon="2.61017">
        <ele>586</ele>
        <time>2018-04-19T02:44:47Z</time>
      </trkpt>
      <trkpt lat="44.78733" lon="2.60979">
        <ele>581</ele>
        <time>2018-04-19T02:43:47Z</time>
      </trkpt>
      <trkpt lat="44.7874" lon="2.6095">
        <ele>578</ele>
        <time>2018-04-19T02:42:47Z</time>
      </trkpt>
      <trkpt lat="44.78744" lon="2.60916">
        <ele>584</ele>
        <time>2018-04-19T02:41:47Z</time>
      </trkpt>
      <trkpt lat="44.78731" lon="2.60862">
        <ele>569</ele>
        <time>2018-04-19T02:40:47Z</time>
      </trkpt>
      <trkpt lat="44.78719" lon="2.60816">
        <ele>565</ele>
        <time>2018-04-19T02:39:47Z</time>
      </trkpt>
      <trkpt lat="44.78711" lon="2.60772">
        <ele>562</ele>
        <time>2018-04-19T02:38:47Z</time>
      </trkpt>
      <trkpt lat="44.78726" lon="2.60717">
        <ele>569</ele>
        <time>2018-04-19T02:37:47Z</time>
      </trkpt>
      <trkpt lat="44.78703" lon="2.60678">
        <ele>562</ele>
        <time>2018-04-19T02:36:47Z</time>
      </trkpt>
      <trkpt lat="44.78695" lon="2.60649">
        <ele>565</ele>
        <time>2018-04-19T02:35:47Z</time>
      </trkpt>
      <trkpt lat="44.78701" lon="2.60612">
        <ele>571</ele>
        <time>2018-04-19T02:34:47Z</time>
      </trkpt>
      <trkpt lat="44.78691" lon="2.60588">
        <ele>568</ele>
        <time>2018-04-19T02:33:47Z</time>
      </trkpt>
      <trkpt lat="44.78666" lon="2.60583">
        <ele>558</ele>
        <time>2018-04-19T02:32:47Z</time>
      </trkpt>
      <trkpt lat="44.78653" lon="2.60571">
        <ele>555</ele>
        <time>2018-04-19T02:31:47Z</time>
      </trkpt>
      <trkpt lat="44.78642" lon="2.60543">
        <ele>556</ele>
        <time>2018-04-19T02:30:47Z</time>
      </trkpt>
      <trkpt lat="44.78627" lon="2.60518">
        <ele>557</ele>
        <time>2018-04-19T02:29:47Z</time>
      </trkpt>
      <trkpt lat="44.78558" lon="2.60486">
        <ele>556</ele>
        <time>2018-04-19T02:28:47Z</time>
      </trkpt>
      <trkpt lat="44.78524" lon="2.60476">
        <ele>554</ele>
        <time>2018-04-19T02:27:47Z</time>
      </trkpt>
      <trkpt lat="44.78471" lon="2.60478">
        <ele>535</ele>
        <time>2018-04-19T02:26:47Z</time>
      </trkpt>
      <trkpt lat="44.78416" lon="2.60453">
        <ele>510</ele>
        <time>2018-04-19T02:25:47Z</time>
      </trkpt>
      <trkpt lat="44.78396" lon="2.60422">
        <ele>514</ele>
        <time>2018-04-19T02:24:47Z</time>
      </trkpt>
      <trkpt lat="44.78372" lon="2.60315">
        <ele>518</ele>
        <time>2018-04-19T02:23:47Z</time>
      </trkpt>
      <trkpt lat="44.78366" lon="2.60269">
        <ele>515</ele>
        <time>2018-04-19T02:22:47Z</time>
      </trkpt>
      <trkpt lat="44.78373" lon="2.60243">
        <ele>510</ele>
        <time>2018-04-19T02:21:47Z</time>
      </trkpt>
      <trkpt lat="44.7839" lon="2.60199">
        <ele>510</ele>
        <time>2018-04-19T02:20:47Z</time>
      </trkpt>
      <trkpt lat="44.784" lon="2.60164">
        <ele>502</ele>
        <time>2018-04-19T02:19:47Z</time>
      </trkpt>
      <trkpt lat="44.7841" lon="2.60147">
        <ele>499</ele>
        <time>2018-04-19T02:18:47Z</time>
      </trkpt>
      <trkpt lat="44.78433" lon="2.60132">
        <ele>512</ele>
        <time>2018-04-19T02:17:47Z</time>
      </trkpt>
      <trkpt lat="44.78451" lon="2.6012">
        <ele>512</ele>
        <time>2018-04-19T02:16:47Z</time>
      </trkpt>
      <trkpt lat="44.78494" lon="2.60108">
        <ele>514</ele>
        <time>2018-04-19T02:15:47Z</time>
      </trkpt>
      <trkpt lat="44.78525" lon="2.60051">
        <ele>512</ele>
        <time>2018-04-19T02:14:47Z</time>
      </trkpt>
      <trkpt lat="44.78545" lon="2.6001">
        <ele>512</ele>
        <time>2018-04-19T02:13:47Z</time>
      </trkpt>
      <trkpt lat="44.78554" lon="2.59971">
        <ele>501</ele>
        <time>2018-04-19T02:12:47Z</time>
      </trkpt>
      <trkpt lat="44.78551" lon="2.59939">
        <ele>498</ele>
        <time>2018-04-19T02:11:47Z</time>
      </trkpt>
      <trkpt lat="44.7854" lon="2.59909">
        <ele>491</ele>
        <time>2018-04-19T02:10:47Z</time>
      </trkpt>
      <trkpt lat="44.78541" lon="2.59882">
        <ele>493</ele>
        <time>2018-04-19T02:09:47Z</time>
      </trkpt>
      <trkpt lat="44.78528" lon="2.5983">
        <ele>495</ele>
        <time>2018-04-19T02:08:47Z</time>
      </trkpt>
      <trkpt lat="44.78521" lon="2.59793">
        <ele>499</ele>
        <time>2018-04-19T02:07:47Z</time>
      </trkpt>
      <trkpt lat="44.78513" lon="2.5976">
        <ele>497</ele>
        <time>2018-04-19T02:06:47Z</time>
      </trkpt>
      <trkpt lat="44.78493" lon="2.59738">
        <ele>489</ele>
        <time>2018-04-19T02:05:47Z</time>
      </trkpt>
      <trkpt lat="44.78461" lon="2.59719">
        <ele>487</ele>
        <time>2018-04-19T02:04:47Z</time>
      </trkpt>
      <trkpt lat="44.78437" lon="2.59702">
        <ele>485</ele>
        <time>2018-04-19T02:03:47Z</time>
      </trkpt>
      <trkpt lat="44.78412" lon="2.59683">
        <ele>473</ele>
        <time>2018-04-19T02:02:47Z</time>
      </trkpt>
      <trkpt lat="44.78386" lon="2.59664">
        <ele>477</ele>
        <time>2018-04-19T02:01:47Z</time>
      </trkpt>
      <trkpt lat="44.78372" lon="2.59651">
        <ele>474</ele>
        <time>2018-04-19T02:00:47Z</time>
      </trkpt>
      <trkpt lat="44.78355" lon="2.59619">
        <ele>474</ele>
        <time>2018-04-19T01:59:47Z</time>
      </trkpt>
      <trkpt lat="44.78336" lon="2.59578">
        <ele>470</ele>
        <time>2018-04-19T01:58:47Z</time>
      </trkpt>
      <trkpt lat="44.78302" lon="2.59525">
        <ele>455</ele>
        <time>2018-04-19T01:57:47Z</time>
      </trkpt>
      <trkpt lat="44.78302" lon="2.59498">
        <ele>452</ele>
        <time>2018-04-19T01:56:47Z</time>
      </trkpt>
      <trkpt lat="44.78335" lon="2.59461">
        <ele>474</ele>
        <time>2018-04-19T01:55:47Z</time>
      </trkpt>
      <trkpt lat="44.78356" lon="2.59432">
        <ele>472</ele>
        <time>2018-04-19T01:54:47Z</time>
      </trkpt>
      <trkpt lat="44.78372" lon="2.59391">
        <ele>465</ele>
        <time>2018-04-19T01:53:47Z</time>
      </trkpt>
      <trkpt lat="44.78384" lon="2.59353">
        <ele>465</ele>
        <time>2018-04-19T01:52:47Z</time>
      </trkpt>
      <trkpt lat="44.78391" lon="2.59322">
        <ele>463</ele>
        <time>2018-04-19T01:51:47Z</time>
      </trkpt>
      <trkpt lat="44.78384" lon="2.59282">
        <ele>460</ele>
        <time>2018-04-19T01:50:47Z</time>
      </trkpt>
      <trkpt lat="44.78368" lon="2.59239">
        <ele>460</ele>
        <time>2018-04-19T01:49:47Z</time>
      </trkpt>
      <trkpt lat="44.78342" lon="2.59204">
        <ele>458</ele>
        <time>2018-04-19T01:48:47Z</time>
      </trkpt>
      <trkpt lat="44.78323" lon="2.5919">
        <ele>441</ele>
        <time>2018-04-19T01:47:47Z</time>
      </trkpt>
      <trkpt lat="44.78306" lon="2.59171">
        <ele>439</ele>
        <time>2018-04-19T01:46:47Z</time>
      </trkpt>
      <trkpt lat="44.78293" lon="2.59147">
        <ele>442</ele>
        <time>2018-04-19T01:45:47Z</time>
      </trkpt>
      <trkpt lat="44.78283" lon="2.59115">
        <ele>441</ele>
        <time>2018-04-19T01:44:47Z</time>
      </trkpt>
      <trkpt lat="44.78267" lon="2.59069">
        <ele>442</ele>
        <time>2018-04-19T01:43:47Z</time>
      </trkpt>
      <trkpt lat="44.78257" lon="2.59035">
        <ele>445</ele>
        <time>2018-04-19T01:42:47Z</time>
      </trkpt>
      <trkpt lat="44.78246" lon="2.58992">
        <ele>441</ele>
        <time>2018-04-19T01:41:47Z</time>
      </trkpt>
      <trkpt lat="44.78245" lon="2.58969">
        <ele>440</ele>
        <time>2018-04-19T01:40:47Z</time>
      </trkpt>
      <trkpt lat="44.78244" lon="2.58951">
        <ele>440</ele>
      </trkpt>
      <trkpt lat="44.7827" lon="2.58952">
        <ele>444</ele>
      </trkpt>
      <trkpt lat="44.78358" lon="2.58946">
        <ele>445</ele>
      </trkpt>
      <trkpt lat="44.78397" lon="2.58951">
        <ele>445</ele>
      </trkpt>
      <trkpt lat="44.78431" lon="2.58961">
        <ele>441</ele>
      </trkpt>
      <trkpt lat="44.78471" lon="2.58977">
        <ele>439</ele>
      </trkpt>
      <trkpt lat="44.78481" lon="2.58983">
        <ele>439</ele>
      </trkpt>
      <trkpt lat="44.7849" lon="2.58997">
        <ele>440</ele>
      </trkpt>
      <trkpt lat="44.78508" lon="2.59035">
        <ele>443</ele>
      </trkpt>
      <trkpt lat="44.78524" lon="2.59062">
        <ele>447</ele>
      </trkpt>
      <trkpt lat="44.78542" lon="2.59087">
        <ele>463</ele>
      </trkpt>
      <trkpt lat="44.78612" lon="2.59173">
        <ele>462</ele>
      </trkpt>
      <trkpt lat="44.78625" lon="2.59199">
        <ele>461</ele>
      </trkpt>
      <trkpt lat="44.78638" lon="2.59243">
        <ele>464</ele>
      </trkpt>
      <trkpt lat="44.78656" lon="2.59261">
        <ele>475</ele>
      </trkpt>
      <trkpt lat="44.7871" lon="2.5932">
        <ele>460</ele>
      </trkpt>
      <trkpt lat="44.78755" lon="2.5939">
        <ele>457</ele>
      </trkpt>
      <trkpt lat="44.78778" lon="2.59434">
        <ele>473</ele>
      </trkpt>
      <trkpt lat="44.78802" lon="2.59476">
        <ele>472</ele>
      </trkpt>
      <trkpt lat="44.78891" lon="2.59612">
        <ele>474</ele>
      </trkpt>
      <trkpt lat="44.78904" lon="2.59646">
        <ele>476</ele>
      </trkpt>
      <trkpt lat="44.78904" lon="2.59646">
        <ele>476</ele>
      </trkpt>
      <trkpt lat="44.78916" lon="2.59702">
        <ele>498</ele>
      </trkpt>
      <trkpt lat="44.78932" lon="2.59733">
        <ele>472</ele>
      </trkpt>
      <trkpt lat="44.78952" lon="2.59758">
        <ele>481</ele>
      </trkpt>
      <trkpt lat="44.78976" lon="2.59796">
        <ele>479</ele>
      </trkpt>
      <trkpt lat="44.78983" lon="2.59814">
        <ele>479</ele>
      </trkpt>
      <trkpt lat="44.78988" lon="2.5985">
        <ele>493</ele>
      </trkpt>
      <trkpt lat="44.79018" lon="2.59915">
        <ele>479</ele>
      </trkpt>
      <trkpt lat="44.79023" lon="2.59969">
        <ele>493</ele>
      </trkpt>
      <trkpt lat="44.79028" lon="2.5998">
        <ele>494</ele>
      </trkpt>
      <trkpt lat="44.79056" lon="2.59986">
        <ele>488</ele>
      </trkpt>
      <trkpt lat="44.79074" lon="2.59999">
        <ele>487</ele>
      </trkpt>
      <trkpt lat="44.79093" lon="2.6002">
        <ele>486</ele>
      </trkpt>
      <trkpt lat="44.79112" lon="2.60056">
        <ele>490</ele>
      </trkpt>
      <trkpt lat="44.79114" lon="2.60089">
        <ele>509</ele>
      </trkpt>
      <trkpt lat="44.79135" lon="2.60092">
        <ele>503</ele>
      </trkpt>
      <trkpt lat="44.7915" lon="2.60118">
        <ele>504</ele>
      </trkpt>
      <trkpt lat="44.7916" lon="2.60152">
        <ele>506</ele>
      </trkpt>
      <trkpt lat="44.79163" lon="2.60191">
        <ele>524</ele>
      </trkpt>
      <trkpt lat="44.79174" lon="2.60227">
        <ele>515</ele>
      </trkpt>
      <trkpt lat="44.79188" lon="2.6025">
        <ele>524</ele>
      </trkpt>
      <trkpt lat="44.79205" lon="2.60247">
        <ele>513</ele>
      </trkpt>
      <trkpt lat="44.79205" lon="2.60247">
        <ele>513</ele>
      </trkpt>
      <trkpt lat="44.79263" lon="2.60204">
        <ele>498</ele>
      </trkpt>
      <trkpt lat="44.79282" lon="2.60212">
        <ele>499</ele>
      </trkpt>
      <trkpt lat="44.79306" lon="2.60225">
        <ele>502</ele>
      </trkpt>
      <trkpt lat="44.79372" lon="2.60268">
        <ele>531</ele>
      </trkpt>
      <trkpt lat="44.79406" lon="2.60296">
        <ele>537</ele>
      </trkpt>
      <trkpt lat="44.79416" lon="2.60286">
        <ele>532</ele>
      </trkpt>
      <trkpt lat="44.79453" lon="2.60249">
        <ele>502</ele>
      </trkpt>
      <trkpt lat="44.79482" lon="2.60245">
        <ele>509</ele>
      </trkpt>
      <trkpt lat="44.7951" lon="2.60229">
        <ele>509</ele>
      </trkpt>
      <trkpt lat="44.79539" lon="2.60232">
        <ele>506</ele>
      </trkpt>
      <trkpt lat="44.79564" lon="2.60264">
        <ele>531</ele>
      </trkpt>
      <trkpt lat="44.79582" lon="2.60269">
        <ele>530</ele>
      </trkpt>
      <trkpt lat="44.79587" lon="2.60274">
        <ele>530</ele>
      </trkpt>
      <trkpt lat="44.79596" lon="2.60281">
        <ele>533</ele>
      </trkpt>
      <trkpt lat="44.79609" lon="2.603">
        <ele>539</ele>
      </trkpt>
      <trkpt lat="44.79619" lon="2.60319">
        <ele>542</ele>
      </trkpt>
      <trkpt lat="44.79625" lon="2.60322">
        <ele>543</ele>
      </trkpt>
      <trkpt lat="44.7963" lon="2.60319">
        <ele>542</ele>
      </trkpt>
      <trkpt lat="44.79657" lon="2.60291">
        <ele>537</ele>
      </trkpt>
      <trkpt lat="44.79683" lon="2.60244">
        <ele>513</ele>
      </trkpt>
      <trkpt lat="44.79699" lon="2.60239">
        <ele>508</ele>
      </trkpt>
      <trkpt lat="44.79699" lon="2.60239">
        <ele>508</ele>
      </trkpt>
      <trkpt lat="44.79717" lon="2.60261">
        <ele>528</ele>
      </trkpt>
      <trkpt lat="44.79725" lon="2.60272">
        <ele>529</ele>
      </trkpt>
      <trkpt lat="44.79741" lon="2.60293">
        <ele>534</ele>
      </trkpt>
      <trkpt lat="44.79762" lon="2.60308">
        <ele>527</ele>
      </trkpt>
      <trkpt lat="44.79779" lon="2.60347">
        <ele>550</ele>
      </trkpt>
      <trkpt lat="44.79792" lon="2.60351">
        <ele>547</ele>
      </trkpt>
      <trkpt lat="44.79804" lon="2.60357">
        <ele>545</ele>
      </trkpt>
      <trkpt lat="44.79807" lon="2.6037">
        <ele>548</ele>
      </trkpt>
      <trkpt lat="44.79846" lon="2.60442">
        <ele>565</ele>
      </trkpt>
      <trkpt lat="44.79857" lon="2.60453">
        <ele>568</ele>
      </trkpt>
      <trkpt lat="44.79868" lon="2.60449">
        <ele>567</ele>
      </trkpt>
      <trkpt lat="44.79924" lon="2.60384">
        <ele>538</ele>
      </trkpt>
      <trkpt lat="44.79936" lon="2.60393">
        <ele>539</ele>
      </trkpt>
      <trkpt lat="44.79938" lon="2.60406">
        <ele>542</ele>
      </trkpt>
      <trkpt lat="44.79957" lon="2.6044">
        <ele>563</ele>
      </trkpt>
      <trkpt lat="44.79974" lon="2.60453">
        <ele>565</ele>
      </trkpt>
      <trkpt lat="44.79981" lon="2.60452">
        <ele>564</ele>
      </trkpt>
      <trkpt lat="44.80032" lon="2.60453">
        <ele>562</ele>
      </trkpt>
      <trkpt lat="44.80057" lon="2.60444">
        <ele>559</ele>
      </trkpt>
      <trkpt lat="44.80073" lon="2.60454">
        <ele>561</ele>
      </trkpt>
      <trkpt lat="44.8008" lon="2.60466">
        <ele>565</ele>
      </trkpt>
      <trkpt lat="44.8008" lon="2.60466">
        <ele>565</ele>
      </trkpt>
      <trkpt lat="44.80087" lon="2.60472">
        <ele>566</ele>
      </trkpt>
      <trkpt lat="44.80093" lon="2.60477">
        <ele>567</ele>
      </trkpt>
      <trkpt lat="44.80096" lon="2.60484">
        <ele>569</ele>
      </trkpt>
      <trkpt lat="44.80089" lon="2.60488">
        <ele>572</ele>
      </trkpt>
      <trkpt lat="44.80084" lon="2.60485">
        <ele>571</ele>
      </trkpt>
      <trkpt lat="44.80062" lon="2.60464">
        <ele>564</ele>
      </trkpt>
      <trkpt lat="44.80054" lon="2.60466">
        <ele>564</ele>
      </trkpt>
      <trkpt lat="44.80041" lon="2.60467">
        <ele>565</ele>
      </trkpt>
      <trkpt lat="44.7998" lon="2.60479">
        <ele>571</ele>
      </trkpt>
      <trkpt lat="44.79962" lon="2.60478">
        <ele>570</ele>
      </trkpt>
      <trkpt lat="44.7994" lon="2.60453">
        <ele>565</ele>
      </trkpt>
      <trkpt lat="44.79927" lon="2.60447">
        <ele>564</ele>
      </trkpt>
      <trkpt lat="44.79877" lon="2.60526">
        <ele>599</ele>
      </trkpt>
      <trkpt lat="44.79868" lon="2.60535">
        <ele>601</ele>
      </trkpt>
      <trkpt lat="44.79857" lon="2.60529">
        <ele>600</ele>
      </trkpt>
      <trkpt lat="44.79845" lon="2.60509">
        <ele>594</ele>
      </trkpt>
      <trkpt lat="44.79835" lon="2.60504">
        <ele>590</ele>
      </trkpt>
      <trkpt lat="44.79825" lon="2.60499">
        <ele>588</ele>
      </trkpt>
      <trkpt lat="44.79821" lon="2.60481">
        <ele>589</ele>
      </trkpt>
      <trkpt lat="44.79812" lon="2.60462">
        <ele>587</ele>
      </trkpt>
      <trkpt lat="44.798" lon="2.60452">
        <ele>587</ele>
      </trkpt>
      <trkpt lat="44.798" lon="2.60452">
        <ele>587</ele>
      </trkpt>
      <trkpt lat="44.79785" lon="2.60439">
        <ele>589</ele>
      </trkpt>
      <trkpt lat="44.79772" lon="2.60419">
        <ele>590</ele>
      </trkpt>
      <trkpt lat="44.79761" lon="2.60409">
        <ele>576</ele>
      </trkpt>
      <trkpt lat="44.79749" lon="2.60405">
        <ele>586</ele>
      </trkpt>
      <trkpt lat="44.79739" lon="2.60395">
        <ele>580</ele>
      </trkpt>
      <trkpt lat="44.79728" lon="2.60379">
        <ele>575</ele>
      </trkpt>
      <trkpt lat="44.79719" lon="2.60371">
        <ele>572</ele>
      </trkpt>
      <trkpt lat="44.79702" lon="2.60376">
        <ele>574</ele>
      </trkpt>
      <trkpt lat="44.79687" lon="2.60383">
        <ele>577</ele>
      </trkpt>
      <trkpt lat="44.79666" lon="2.60408">
        <ele>589</ele>
      </trkpt>
      <trkpt lat="44.79654" lon="2.6042">
        <ele>602</ele>
      </trkpt>
      <trkpt lat="44.79638" lon="2.60424">
        <ele>606</ele>
      </trkpt>
      <trkpt lat="44.79622" lon="2.60444">
        <ele>610</ele>
      </trkpt>
      <trkpt lat="44.79612" lon="2.60458">
        <ele>614</ele>
      </trkpt>
      <trkpt lat="44.79598" lon="2.60459">
        <ele>614</ele>
      </trkpt>
      <trkpt lat="44.79575" lon="2.60405">
        <ele>588</ele>
      </trkpt>
      <trkpt lat="44.7956" lon="2.60401">
        <ele>586</ele>
      </trkpt>
      <trkpt lat="44.79544" lon="2.60394">
        <ele>586</ele>
      </trkpt>
      <trkpt lat="44.79528" lon="2.60381">
        <ele>585</ele>
      </trkpt>
      <trkpt lat="44.79522" lon="2.60372">
        <ele>583</ele>
      </trkpt>
      <trkpt lat="44.79511" lon="2.60366">
        <ele>582</ele>
      </trkpt>
      <trkpt lat="44.79511" lon="2.60366">
        <ele>582</ele>
      </trkpt>
      <trkpt lat="44.79499" lon="2.60369">
        <ele>583</ele>
      </trkpt>
      <trkpt lat="44.79472" lon="2.60403">
        <ele>591</ele>
      </trkpt>
      <trkpt lat="44.79452" lon="2.60428">
        <ele>614</ele>
      </trkpt>
      <trkpt lat="44.79447" lon="2.60443">
        <ele>616</ele>
      </trkpt>
      <trkpt lat="44.7944" lon="2.60451">
        <ele>617</ele>
      </trkpt>
      <trkpt lat="44.79425" lon="2.60454">
        <ele>617</ele>
      </trkpt>
      <trkpt lat="44.79396" lon="2.60438">
        <ele>615</ele>
      </trkpt>
      <trkpt lat="44.79315" lon="2.60417">
        <ele>616</ele>
      </trkpt>
      <trkpt lat="44.79297" lon="2.60417">
        <ele>616</ele>
      </trkpt>
      <trkpt lat="44.79272" lon="2.60444">
        <ele>617</ele>
      </trkpt>
      <trkpt lat="44.79244" lon="2.60482">
        <ele>622</ele>
      </trkpt>
      <trkpt lat="44.79232" lon="2.60494">
        <ele>623</ele>
      </trkpt>
      <trkpt lat="44.79179" lon="2.60496">
        <ele>620</ele>
      </trkpt>
      <trkpt lat="44.79139" lon="2.60515">
        <ele>643</ele>
      </trkpt>
      <trkpt lat="44.79123" lon="2.60522">
        <ele>647</ele>
      </trkpt>
      <trkpt lat="44.79074" lon="2.60498">
        <ele>647</ele>
      </trkpt>
      <trkpt lat="44.79065" lon="2.60487">
        <ele>651</ele>
      </trkpt>
      <trkpt lat="44.79059" lon="2.60477">
        <ele>653</ele>
      </trkpt>
      <trkpt lat="44.79056" lon="2.60461">
        <ele>653</ele>
      </trkpt>
      <trkpt lat="44.79052" lon="2.60427">
        <ele>649</ele>
      </trkpt>
      <trkpt lat="44.7905" lon="2.60398">
        <ele>637</ele>
      </trkpt>
      <trkpt lat="44.7905" lon="2.60398">
        <ele>637</ele>
      </trkpt>
      <trkpt lat="44.79042" lon="2.60347">
        <ele>634</ele>
      </trkpt>
      <trkpt lat="44.79028" lon="2.60325">
        <ele>622</ele>
      </trkpt>
      <trkpt lat="44.79016" lon="2.60314">
        <ele>624</ele>
      </trkpt>
      <trkpt lat="44.78992" lon="2.60304">
        <ele>640</ele>
      </trkpt>
      <trkpt lat="44.7895" lon="2.6027">
        <ele>638</ele>
      </trkpt>
      <trkpt lat="44.78913" lon="2.60253">
        <ele>640</ele>
      </trkpt>
      <trkpt lat="44.7888" lon="2.60245">
        <ele>640</ele>
      </trkpt>
      <trkpt lat="44.78852" lon="2.60221">
        <ele>644</ele>
      </trkpt>
      <trkpt lat="44.78824" lon="2.60171">
        <ele>651</ele>
      </trkpt>
      <trkpt lat="44.78817" lon="2.60126">
        <ele>645</ele>
      </trkpt>
      <trkpt lat="44.78811" lon="2.601">
        <ele>643</ele>
      </trkpt>
      <trkpt lat="44.78805" lon="2.60078">
        <ele>633</ele>
      </trkpt>
      <trkpt lat="44.78789" lon="2.60042">
        <ele>631</ele>
      </trkpt>
      <trkpt lat="44.78772" lon="2.6002">
        <ele>630</ele>
      </trkpt>
      <trkpt lat="44.78755" lon="2.60015">
        <ele>630</ele>
      </trkpt>
      <trkpt lat="44.7875" lon="2.60026">
        <ele>631</ele>
      </trkpt>
      <trkpt lat="44.78733" lon="2.60094">
        <ele>639</ele>
      </trkpt>
      <trkpt lat="44.78725" lon="2.60158">
        <ele>644</ele>
      </trkpt>
      <trkpt lat="44.78718" lon="2.6018">
        <ele>652</ele>
      </trkpt>
      <trkpt lat="44.78693" lon="2.60228">
        <ele>650</ele>
      </trkpt>
      <trkpt lat="44.7869" lon="2.60257">
        <ele>650</ele>
      </trkpt>
      <trkpt lat="44.7869" lon="2.60257">
        <ele>650</ele>
      </trkpt>
      <trkpt lat="44.78702" lon="2.60274">
        <ele>652</ele>
      </trkpt>
      <trkpt lat="44.78759" lon="2.60284">
        <ele>665</ele>
      </trkpt>
      <trkpt lat="44.78786" lon="2.60296">
        <ele>665</ele>
      </trkpt>
      <trkpt lat="44.78801" lon="2.60315">
        <ele>666</ele>
      </trkpt>
      <trkpt lat="44.78852" lon="2.60391">
        <ele>675</ele>
      </trkpt>
      <trkpt lat="44.78925" lon="2.60527">
        <ele>690</ele>
      </trkpt>
      <trkpt lat="44.78935" lon="2.60572">
        <ele>689</ele>
      </trkpt>
      <trkpt lat="44.78952" lon="2.60605">
        <ele>692</ele>
      </trkpt>
      <trkpt lat="44.78969" lon="2.60627">
        <ele>695</ele>
      </trkpt>
      <trkpt lat="44.78979" lon="2.60655">
        <ele>699</ele>
      </trkpt>
      <trkpt lat="44.78985" lon="2.60733">
        <ele>707</ele>
      </trkpt>
      <trkpt lat="44.78979" lon="2.60807">
        <ele>709</ele>
      </trkpt>
      <trkpt lat="44.78988" lon="2.60823">
        <ele>713</ele>
      </trkpt>
      <trkpt lat="44.79006" lon="2.60833">
        <ele>720</ele>
      </trkpt>
      <trkpt lat="44.79106" lon="2.60841">
        <ele>728</ele>
      </trkpt>
      <trkpt lat="44.79201" lon="2.60853">
        <ele>730</ele>
      </trkpt>
      <trkpt lat="44.79253" lon="2.60856">
        <ele>731</ele>
      </trkpt>
      <trkpt lat="44.79354" lon="2.60835">
        <ele>733</ele>
      </trkpt>
      <trkpt lat="44.79407" lon="2.60814">
        <ele>733</ele>
      </trkpt>
      <trkpt lat="44.79444" lon="2.60815">
        <ele>731</ele>
      </trkpt>
      <trkpt lat="44.79472" lon="2.60819">
        <ele>731</ele>
      </trkpt>
      <trkpt lat="44.79472" lon="2.60819">
        <ele>731</ele>
      </trkpt>
      <trkpt lat="44.79496" lon="2.60837">
        <ele>733</ele>
      </trkpt>
      <trkpt lat="44.79518" lon="2.60852">
        <ele>733</ele>
      </trkpt>
      <trkpt lat="44.79596" lon="2.60949">
        <ele>735</ele>
      </trkpt>
      <trkpt lat="44.79654" lon="2.60982">
        <ele>735</ele>
      </trkpt>
      <trkpt lat="44.79757" lon="2.61075">
        <ele>731</ele>
      </trkpt>
      <trkpt lat="44.79846" lon="2.61128">
        <ele>732</ele>
      </trkpt>
      <trkpt lat="44.79879" lon="2.61145">
        <ele>733</ele>
      </trkpt>
      <trkpt lat="44.79926" lon="2.61154">
        <ele>734</ele>
      </trkpt>
      <trkpt lat="44.79969" lon="2.61152">
        <ele>732</ele>
      </trkpt>
      <trkpt lat="44.79991" lon="2.61143">
        <ele>732</ele>
      </trkpt>
      <trkpt lat="44.80034" lon="2.6112">
        <ele>728</ele>
      </trkpt>
      <trkpt lat="44.80065" lon="2.61101">
        <ele>727</ele>
      </trkpt>
      <trkpt lat="44.80083" lon="2.61104">
        <ele>727</ele>
      </trkpt>
      <trkpt lat="44.80104" lon="2.6112">
        <ele>728</ele>
      </trkpt>
      <trkpt lat="44.80126" lon="2.61133">
        <ele>729</ele>
      </trkpt>
      <trkpt lat="44.80211" lon="2.61128">
        <ele>735</ele>
      </trkpt>
      <trkpt lat="44.80281" lon="2.61142">
        <ele>740</ele>
      </trkpt>
      <trkpt lat="44.8036" lon="2.61177">
        <ele>746</ele>
      </trkpt>
      <trkpt lat="44.80468" lon="2.61271">
        <ele>745</ele>
      </trkpt>
      <trkpt lat="44.8052" lon="2.61288">
        <ele>747</ele>
      </trkpt>
      <trkpt lat="44.80554" lon="2.61306">
        <ele>747</ele>
      </trkpt>
      <trkpt lat="44.80554" lon="2.61306">
        <ele>747</ele>
      </trkpt>
      <trkpt lat="44.80581" lon="2.61324">
        <ele>748</ele>
      </trkpt>
      <trkpt lat="44.80606" lon="2.61352">
        <ele>748</ele>
      </trkpt>
      <trkpt lat="44.80631" lon="2.61394">
        <ele>748</ele>
      </trkpt>
      <trkpt lat="44.80669" lon="2.61464">
        <ele>748</ele>
      </trkpt>
      <trkpt lat="44.80749" lon="2.61616">
        <ele>751</ele>
      </trkpt>
      <trkpt lat="44.8076" lon="2.61666">
        <ele>752</ele>
      </trkpt>
      <trkpt lat="44.8078" lon="2.61696">
        <ele>754</ele>
      </trkpt>
      <trkpt lat="44.80817" lon="2.61711">
        <ele>755</ele>
      </trkpt>
      <trkpt lat="44.80853" lon="2.61705">
        <ele>757</ele>
      </trkpt>
      <trkpt lat="44.8088" lon="2.61689">
        <ele>757</ele>
      </trkpt>
      <trkpt lat="44.80911" lon="2.61663">
        <ele>758</ele>
      </trkpt>
      <trkpt lat="44.81" lon="2.61561">
        <ele>761</ele>
      </trkpt>
      <trkpt lat="44.8102" lon="2.61546">
        <ele>761</ele>
      </trkpt>
      <trkpt lat="44.81037" lon="2.61542">
        <ele>761</ele>
      </trkpt>
      <trkpt lat="44.81061" lon="2.61543">
        <ele>762</ele>
      </trkpt>
      <trkpt lat="44.8111" lon="2.6156">
        <ele>764</ele>
      </trkpt>
      <trkpt lat="44.81129" lon="2.61553">
        <ele>764</ele>
      </trkpt>
      <trkpt lat="44.8118" lon="2.61508">
        <ele>762</ele>
      </trkpt>
      <trkpt lat="44.81187" lon="2.61486">
        <ele>760</ele>
      </trkpt>
      <trkpt lat="44.81237" lon="2.61382">
        <ele>758</ele>
      </trkpt>
      <trkpt lat="44.81268" lon="2.61356">
        <ele>757</ele>
      </trkpt>
      <trkpt lat="44.81268" lon="2.61356">
        <ele>757</ele>
      </trkpt>
      <trkpt lat="44.81313" lon="2.61343">
        <ele>756</ele>
      </trkpt>
      <trkpt lat="44.81353" lon="2.61337">
        <ele>755</ele>
      </trkpt>
      <trkpt lat="44.8145" lon="2.61329">
        <ele>753</ele>
      </trkpt>
      <trkpt lat="44.81499" lon="2.61336">
        <ele>752</ele>
      </trkpt>
      <trkpt lat="44.81581" lon="2.61337">
        <ele>752</ele>
      </trkpt>
      <trkpt lat="44.81617" lon="2.61357">
        <ele>753</ele>
      </trkpt>
      <trkpt lat="44.81652" lon="2.61362">
        <ele>753</ele>
      </trkpt>
      <trkpt lat="44.81664" lon="2.61371">
        <ele>753</ele>
      </trkpt>
      <trkpt lat="44.81675" lon="2.61377">
        <ele>755</ele>
      </trkpt>
      <trkpt lat="44.81691" lon="2.61392">
        <ele>755</ele>
      </trkpt>
      <trkpt lat="44.81694" lon="2.61393">
        <ele>755</ele>
      </trkpt>
      <trkpt lat="44.81706" lon="2.6134">
        <ele>755</ele>
      </trkpt>
      <trkpt lat="44.81748" lon="2.61299">
        <ele>754</ele>
      </trkpt>
      <trkpt lat="44.818" lon="2.61293">
        <ele>755</ele>
      </trkpt>
      <trkpt lat="44.81854" lon="2.61284">
        <ele>754</ele>
      </trkpt>
      <trkpt lat="44.81915" lon="2.61271">
        <ele>751</ele>
      </trkpt>
      <trkpt lat="44.81944" lon="2.61278">
        <ele>745</ele>
      </trkpt>
      <trkpt lat="44.81967" lon="2.613">
        <ele>745</ele>
      </trkpt>
      <trkpt lat="44.82026" lon="2.61329">
        <ele>735</ele>
      </trkpt>
      <trkpt lat="44.82133" lon="2.61364">
        <ele>736</ele>
      </trkpt>
      <trkpt lat="44.82309" lon="2.61463">
        <ele>729</ele>
      </trkpt>
      <trkpt lat="44.82309" lon="2.61463">
        <ele>729</ele>
      </trkpt>
      <trkpt lat="44.82335" lon="2.61542">
        <ele>715</ele>
      </trkpt>
      <trkpt lat="44.82348" lon="2.61687">
        <ele>735</ele>
      </trkpt>
      <trkpt lat="44.82404" lon="2.61823">
        <ele>742</ele>
      </trkpt>
      <trkpt lat="44.82436" lon="2.6188">
        <ele>737</ele>
      </trkpt>
      <trkpt lat="44.82476" lon="2.61925">
        <ele>740</ele>
      </trkpt>
      <trkpt lat="44.82496" lon="2.6196">
        <ele>742</ele>
      </trkpt>
      <trkpt lat="44.82512" lon="2.61991">
        <ele>733</ele>
      </trkpt>
      <trkpt lat="44.82523" lon="2.62036">
        <ele>738</ele>
      </trkpt>
      <trkpt lat="44.82541" lon="2.62074">
        <ele>738</ele>
      </trkpt>
      <trkpt lat="44.82552" lon="2.62086">
        <ele>743</ele>
      </trkpt>
      <trkpt lat="44.82561" lon="2.62105">
        <ele>742</ele>
      </trkpt>
      <trkpt lat="44.82647" lon="2.62193">
        <ele>747</ele>
      </trkpt>
      <trkpt lat="44.82708" lon="2.62251">
        <ele>758</ele>
      </trkpt>
      <trkpt lat="44.82726" lon="2.62263">
        <ele>757</ele>
      </trkpt>
      <trkpt lat="44.82736" lon="2.62267">
        <ele>756</ele>
      </trkpt>
      <trkpt lat="44.82758" lon="2.62271">
        <ele>754</ele>
      </trkpt>
      <trkpt lat="44.82806" lon="2.62282">
        <ele>754</ele>
      </trkpt>
      <trkpt lat="44.8283" lon="2.62292">
        <ele>754</ele>
      </trkpt>
      <trkpt lat="44.82857" lon="2.62325">
        <ele>752</ele>
      </trkpt>
      <trkpt lat="44.82886" lon="2.62369">
        <ele>757</ele>
      </trkpt>
      <trkpt lat="44.82933" lon="2.62449">
        <ele>758</ele>
      </trkpt>
      <trkpt lat="44.82933" lon="2.62449">
        <ele>758</ele>
      </trkpt>
      <trkpt lat="44.82946" lon="2.62496">
        <ele>759</ele>
      </trkpt>
      <trkpt lat="44.82951" lon="2.62531">
        <ele>762</ele>
      </trkpt>
      <trkpt lat="44.82969" lon="2.62553">
        <ele>761</ele>
      </trkpt>
      <trkpt lat="44.82994" lon="2.62582">
        <ele>762</ele>
      </trkpt>
      <trkpt lat="44.83068" lon="2.62584">
        <ele>758</ele>
      </trkpt>
      <trkpt lat="44.83094" lon="2.62585">
        <ele>756</ele>
      </trkpt>
      <trkpt lat="44.83103" lon="2.62582">
        <ele>754</ele>
      </trkpt>
      <trkpt lat="44.83116" lon="2.62576">
        <ele>753</ele>
      </trkpt>
      <trkpt lat="44.83134" lon="2.62559">
        <ele>751</ele>
      </trkpt>
      <trkpt lat="44.83147" lon="2.62568">
        <ele>751</ele>
      </trkpt>
      <trkpt lat="44.83157" lon="2.62605">
        <ele>752</ele>
      </trkpt>
      <trkpt lat="44.83169" lon="2.62628">
        <ele>749</ele>
      </trkpt>
      <trkpt lat="44.83199" lon="2.62651">
        <ele>748</ele>
      </trkpt>
      <trkpt lat="44.83216" lon="2.62659">
        <ele>748</ele>
      </trkpt>
      <trkpt lat="44.83218" lon="2.62674">
        <ele>748</ele>
      </trkpt>
      <trkpt lat="44.83211" lon="2.62685">
        <ele>748</ele>
      </trkpt>
      <trkpt lat="44.832" lon="2.62725">
        <ele>747</ele>
      </trkpt>
      <trkpt lat="44.83187" lon="2.62794">
        <ele>743</ele>
      </trkpt>
      <trkpt lat="44.83189" lon="2.62921">
        <ele>736</ele>
      </trkpt>
      <trkpt lat="44.8318" lon="2.63031">
        <ele>733</ele>
      </trkpt>
      <trkpt lat="44.83182" lon="2.63129">
        <ele>732</ele>
      </trkpt>
      <trkpt lat="44.83182" lon="2.63129">
        <ele>732</ele>
      </trkpt>
      <trkpt lat="44.83176" lon="2.63161">
        <ele>731</ele>
      </trkpt>
      <trkpt lat="44.83143" lon="2.63221">
        <ele>728</ele>
      </trkpt>
      <trkpt lat="44.83138" lon="2.633">
        <ele>728</ele>
      </trkpt>
      <trkpt lat="44.83146" lon="2.63328">
        <ele>728</ele>
      </trkpt>
      <trkpt lat="44.83149" lon="2.63369">
        <ele>727</ele>
      </trkpt>
      <trkpt lat="44.83147" lon="2.63407">
        <ele>727</ele>
      </trkpt>
      <trkpt lat="44.8314" lon="2.63492">
        <ele>727</ele>
      </trkpt>
      <trkpt lat="44.83137" lon="2.63508">
        <ele>727</ele>
      </trkpt>
      <trkpt lat="44.83126" lon="2.63549">
        <ele>728</ele>
      </trkpt>
      <trkpt lat="44.83106" lon="2.63672">
        <ele>734</ele>
      </trkpt>
      <trkpt lat="44.83099" lon="2.63691">
        <ele>734</ele>
      </trkpt>
      <trkpt lat="44.8304" lon="2.63817">
        <ele>741</ele>
      </trkpt>
      <trkpt lat="44.83015" lon="2.63896">
        <ele>742</ele>
      </trkpt>
      <trkpt lat="44.83004" lon="2.6394">
        <ele>741</ele>
      </trkpt>
      <trkpt lat="44.82922" lon="2.64196">
        <ele>729</ele>
      </trkpt>
      <trkpt lat="44.82904" lon="2.64193">
        <ele>727</ele>
      </trkpt>
      <trkpt lat="44.8291" lon="2.64218">
        <ele>726</ele>
      </trkpt>
      <trkpt lat="44.82899" lon="2.6425">
        <ele>725</ele>
      </trkpt>
      <trkpt lat="44.82853" lon="2.64355">
        <ele>718</ele>
      </trkpt>
      <trkpt lat="44.82831" lon="2.6441">
        <ele>717</ele>
      </trkpt>
      <trkpt lat="44.82827" lon="2.64492">
        <ele>716</ele>
        <time>2018-04-19T08:19:33Z</time>
      </trkpt>
      <trkpt lat="44.82828" lon="2.64498">
        <ele>716</ele>
        <time>2018-04-19T08:18:33Z</time>
      </trkpt>
      <trkpt lat="44.82836" lon="2.64551">
        <ele>715</ele>
        <time>2018-04-19T08:17:33Z</time>
      </trkpt>
      <trkpt lat="44.82842" lon="2.64583">
        <ele>717</ele>
        <time>2018-04-19T08:16:33Z</time>
      </trkpt>
      <trkpt lat="44.82844" lon="2.64608">
        <ele>716</ele>
        <time>2018-04-19T08:15:33Z</time>
      </trkpt>
      <trkpt lat="44.82845" lon="2.64616">
        <ele>716</ele>
        <time>2018-04-19T08:14:33Z</time>
      </trkpt>
      <trkpt lat="44.82844" lon="2.64626">
        <ele>716</ele>
        <time>2018-04-19T08:13:33Z</time>
      </trkpt>
      <trkpt lat="44.82843" lon="2.64636">
        <ele>716</ele>
        <time>2018-04-19T08:12:33Z</time>
      </trkpt>
      <trkpt lat="44.82836" lon="2.64658">
        <ele>718</ele>
        <time>2018-04-19T08:11:33Z</time>
      </trkpt>
      <trkpt lat="44.8283" lon="2.64673">
        <ele>720</ele>
        <time>2018-04-19T08:10:33Z</time>
      </trkpt>
      <trkpt lat="44.82821" lon="2.64694">
        <ele>722</ele>
        <time>2018-04-19T08:09:33Z</time>
      </trkpt>
      <trkpt lat="44.82818" lon="2.64703">
        <ele>722</ele>
        <time>2018-04-19T08:08:33Z</time>
      </trkpt>
      <trkpt lat="44.82814" lon="2.64713">
        <ele>722</ele>
        <time>2018-04-19T08:07:33Z</time>
      </trkpt>
      <trkpt lat="44.82813" lon="2.64717">
        <ele>722</ele>
        <time>2018-04-19T08:06:33Z</time>
      </trkpt>
      <trkpt lat="44.82809" lon="2.64731">
        <ele>722</ele>
        <time>2018-04-19T08:05:33Z</time>
      </trkpt>
      <trkpt lat="44.82807" lon="2.64748">
        <ele>722</ele>
        <time>2018-04-19T08:04:33Z</time>
      </trkpt>
      <trkpt lat="44.82806" lon="2.64765">
        <ele>725</ele>
        <time>2018-04-19T08:03:33Z</time>
      </trkpt>
      <trkpt lat="44.82807" lon="2.64776">
        <ele>725</ele>
        <time>2018-04-19T08:02:33Z</time>
      </trkpt>
      <trkpt lat="44.82809" lon="2.64785">
        <ele>725</ele>
        <time>2018-04-19T08:01:33Z</time>
      </trkpt>
      <trkpt lat="44.82812" lon="2.64795">
        <ele>725</ele>
        <time>2018-04-19T08:00:33Z</time>
      </trkpt>
      <trkpt lat="44.82808" lon="2.64798">
        <ele>726</ele>
        <time>2018-04-19T07:59:33Z</time>
      </trkpt>
      <trkpt lat="44.82807" lon="2.64799">
        <ele>726</ele>
        <time>2018-04-19T07:58:33Z</time>
      </trkpt>
      <trkpt lat="44.82806" lon="2.64815">
        <ele>726</ele>
        <time>2018-04-19T07:57:33Z</time>
      </trkpt>
      <trkpt lat="44.82802" lon="2.64857">
        <ele>729</ele>
        <time>2018-04-19T07:56:33Z</time>
      </trkpt>
      <trkpt lat="44.82801" lon="2.64875">
        <ele>730</ele>
        <time>2018-04-19T07:55:33Z</time>
      </trkpt>
      <trkpt lat="44.828" lon="2.64895">
        <ele>730</ele>
        <time>2018-04-19T07:54:33Z</time>
      </trkpt>
      <trkpt lat="44.82798" lon="2.64911">
        <ele>730</ele>
        <time>2018-04-19T07:53:33Z</time>
      </trkpt>
      <trkpt lat="44.82794" lon="2.64947">
        <ele>735</ele>
        <time>2018-04-19T07:52:33Z</time>
      </trkpt>
      <trkpt lat="44.82792" lon="2.64961">
        <ele>735</ele>
        <time>2018-04-19T07:51:33Z</time>
      </trkpt>
      <trkpt lat="44.82789" lon="2.6498">
        <ele>736</ele>
        <time>2018-04-19T07:50:33Z</time>
      </trkpt>
      <trkpt lat="44.82786" lon="2.64993">
        <ele>737</ele>
        <time>2018-04-19T07:49:33Z</time>
      </trkpt>
      <trkpt lat="44.82783" lon="2.65004">
        <ele>742</ele>
        <time>2018-04-19T07:48:33Z</time>
      </trkpt>
      <trkpt lat="44.8278" lon="2.65013">
        <ele>742</ele>
        <time>2018-04-19T07:47:33Z</time>
      </trkpt>
      <trkpt lat="44.82778" lon="2.65018">
        <ele>742</ele>
        <time>2018-04-19T07:46:33Z</time>
      </trkpt>
      <trkpt lat="44.82774" lon="2.65023">
        <ele>743</ele>
        <time>2018-04-19T07:45:33Z</time>
      </trkpt>
      <trkpt lat="44.8277" lon="2.65032">
        <ele>743</ele>
        <time>2018-04-19T07:44:33Z</time>
      </trkpt>
      <trkpt lat="44.82766" lon="2.65038">
        <ele>743</ele>
        <time>2018-04-19T07:43:33Z</time>
      </trkpt>
      <trkpt lat="44.82764" lon="2.65044">
        <ele>744</ele>
        <time>2018-04-19T07:42:33Z</time>
      </trkpt>
      <trkpt lat="44.82761" lon="2.65062">
        <ele>746</ele>
        <time>2018-04-19T07:41:33Z</time>
      </trkpt>
      <trkpt lat="44.8276" lon="2.65074">
        <ele>748</ele>
        <time>2018-04-19T07:40:33Z</time>
      </trkpt>
      <trkpt lat="44.82757" lon="2.65169">
        <ele>755</ele>
        <time>2018-04-19T07:39:33Z</time>
      </trkpt>
      <trkpt lat="44.82755" lon="2.65189">
        <ele>755</ele>
        <time>2018-04-19T07:38:33Z</time>
      </trkpt>
      <trkpt lat="44.82756" lon="2.65202">
        <ele>755</ele>
        <time>2018-04-19T07:37:33Z</time>
      </trkpt>
      <trkpt lat="44.82759" lon="2.65233">
        <ele>758</ele>
        <time>2018-04-19T07:36:33Z</time>
      </trkpt>
      <trkpt lat="44.8276" lon="2.65259">
        <ele>761</ele>
        <time>2018-04-19T07:35:33Z</time>
      </trkpt>
      <trkpt lat="44.82758" lon="2.65264">
        <ele>761</ele>
        <time>2018-04-19T07:34:33Z</time>
      </trkpt>
      <trkpt lat="44.82759" lon="2.65264">
        <ele>761</ele>
        <time>2018-04-19T07:33:33Z</time>
      </trkpt>
      <trkpt lat="44.82778" lon="2.65322">
        <ele>763</ele>
        <time>2018-04-19T07:32:33Z</time>
      </trkpt>
      <trkpt lat="44.82787" lon="2.65355">
        <ele>766</ele>
        <time>2018-04-19T07:31:33Z</time>
      </trkpt>
      <trkpt lat="44.82786" lon="2.65376">
        <ele>767</ele>
        <time>2018-04-19T07:30:33Z</time>
      </trkpt>
      <trkpt lat="44.82781" lon="2.65419">
        <ele>771</ele>
        <time>2018-04-19T07:29:33Z</time>
      </trkpt>
      <trkpt lat="44.82784" lon="2.6546">
        <ele>771</ele>
        <time>2018-04-19T07:28:33Z</time>
      </trkpt>
      <trkpt lat="44.82794" lon="2.65523">
        <ele>774</ele>
        <time>2018-04-19T07:27:33Z</time>
      </trkpt>
      <trkpt lat="44.82804" lon="2.65577">
        <ele>774</ele>
        <time>2018-04-19T07:26:33Z</time>
      </trkpt>
      <trkpt lat="44.82832" lon="2.65632">
        <ele>776</ele>
        <time>2018-04-19T07:25:33Z</time>
      </trkpt>
      <trkpt lat="44.82847" lon="2.6569">
        <ele>773</ele>
        <time>2018-04-19T07:24:33Z</time>
      </trkpt>
      <trkpt lat="44.82845" lon="2.65749">
        <ele>776</ele>
        <time>2018-04-19T07:23:33Z</time>
      </trkpt>
      <trkpt lat="44.8284" lon="2.65777">
        <ele>777</ele>
        <time>2018-04-19T07:22:33Z</time>
      </trkpt>
      <trkpt lat="44.82851" lon="2.6584">
        <ele>782</ele>
        <time>2018-04-19T07:21:33Z</time>
      </trkpt>
      <trkpt lat="44.82847" lon="2.65862">
        <ele>783</ele>
        <time>2018-04-19T07:20:33Z</time>
      </trkpt>
      <trkpt lat="44.82793" lon="2.65988">
        <ele>795</ele>
        <time>2018-04-19T07:19:33Z</time>
      </trkpt>
      <trkpt lat="44.82772" lon="2.65993">
        <ele>797</ele>
        <time>2018-04-19T07:18:33Z</time>
      </trkpt>
      <trkpt lat="44.82748" lon="2.66035">
        <ele>804</ele>
        <time>2018-04-19T07:17:33Z</time>
      </trkpt>
      <trkpt lat="44.82722" lon="2.66075">
        <ele>805</ele>
        <time>2018-04-19T07:16:33Z</time>
      </trkpt>
      <trkpt lat="44.82705" lon="2.66064">
        <ele>806</ele>
        <time>2018-04-19T07:15:33Z</time>
      </trkpt>
      <trkpt lat="44.82701" lon="2.66075">
        <ele>806</ele>
        <time>2018-04-19T07:14:33Z</time>
      </trkpt>
      <trkpt lat="44.82644" lon="2.66013">
        <ele>810</ele>
        <time>2018-04-19T07:13:33Z</time>
      </trkpt>
      <trkpt lat="44.8256" lon="2.65999">
        <ele>814</ele>
        <time>2018-04-19T07:12:33Z</time>
      </trkpt>
      <trkpt lat="44.82559" lon="2.66004">
        <ele>813</ele>
        <time>2018-04-19T07:11:33Z</time>
      </trkpt>
      <trkpt lat="44.82554" lon="2.66025">
        <ele>813</ele>
        <time>2018-04-19T07:10:33Z</time>
      </trkpt>
      <trkpt lat="44.82549" lon="2.66053">
        <ele>812</ele>
        <time>2018-04-19T07:09:33Z</time>
      </trkpt>
      <trkpt lat="44.82543" lon="2.66079">
        <ele>812</ele>
        <time>2018-04-19T07:08:33Z</time>
      </trkpt>
      <trkpt lat="44.82539" lon="2.66096">
        <ele>812</ele>
        <time>2018-04-19T07:07:33Z</time>
      </trkpt>
      <trkpt lat="44.82535" lon="2.66107">
        <ele>812</ele>
        <time>2018-04-19T07:06:33Z</time>
      </trkpt>
      <trkpt lat="44.82527" lon="2.66126">
        <ele>812</ele>
        <time>2018-04-19T07:05:33Z</time>
      </trkpt>
      <trkpt lat="44.82526" lon="2.66128">
        <ele>812</ele>
        <time>2018-04-19T07:04:33Z</time>
      </trkpt>
      <trkpt lat="44.82521" lon="2.66138">
        <ele>812</ele>
        <time>2018-04-19T07:03:33Z</time>
      </trkpt>
      <trkpt lat="44.82512" lon="2.66143">
        <ele>812</ele>
        <time>2018-04-19T07:02:33Z</time>
      </trkpt>
      <trkpt lat="44.82511" lon="2.66153">
        <ele>812</ele>
        <time>2018-04-19T07:01:33Z</time>
      </trkpt>
      <trkpt lat="44.8251" lon="2.66159">
        <ele>812</ele>
        <time>2018-04-19T07:00:33Z</time>
      </trkpt>
      <trkpt lat="44.82511" lon="2.66165">
        <ele>812</ele>
        <time>2018-04-19T06:59:33Z</time>
      </trkpt>
      <trkpt lat="44.82512" lon="2.66174">
        <ele>812</ele>
        <time>2018-04-19T06:58:33Z</time>
      </trkpt>
      <trkpt lat="44.82507" lon="2.66181">
        <ele>812</ele>
        <time>2018-04-19T06:57:33Z</time>
      </trkpt>
      <trkpt lat="44.82477" lon="2.66232">
        <ele>814</ele>
        <time>2018-04-19T06:56:33Z</time>
      </trkpt>
      <trkpt lat="44.82471" lon="2.66238">
        <ele>814</ele>
        <time>2018-04-19T06:55:33Z</time>
      </trkpt>
      <trkpt lat="44.82439" lon="2.66275">
        <ele>815</ele>
        <time>2018-04-19T06:54:33Z</time>
      </trkpt>
      <trkpt lat="44.82436" lon="2.66282">
        <ele>815</ele>
        <time>2018-04-19T06:53:33Z</time>
      </trkpt>
      <trkpt lat="44.82431" lon="2.66296">
        <ele>816</ele>
        <time>2018-04-19T06:52:33Z</time>
      </trkpt>
      <trkpt lat="44.82429" lon="2.6631">
        <ele>816</ele>
        <time>2018-04-19T06:51:33Z</time>
      </trkpt>
      <trkpt lat="44.82413" lon="2.66429">
        <ele>821</ele>
        <time>2018-04-19T06:50:33Z</time>
      </trkpt>
      <trkpt lat="44.82409" lon="2.66454">
        <ele>822</ele>
        <time>2018-04-19T06:49:33Z</time>
      </trkpt>
      <trkpt lat="44.82406" lon="2.66477">
        <ele>823</ele>
        <time>2018-04-19T06:48:33Z</time>
      </trkpt>
      <trkpt lat="44.82394" lon="2.66573">
        <ele>828</ele>
        <time>2018-04-19T06:47:33Z</time>
      </trkpt>
      <trkpt lat="44.82391" lon="2.66591">
        <ele>831</ele>
        <time>2018-04-19T06:46:33Z</time>
      </trkpt>
      <trkpt lat="44.82389" lon="2.66605">
        <ele>832</ele>
        <time>2018-04-19T06:45:33Z</time>
      </trkpt>
      <trkpt lat="44.82388" lon="2.66615">
        <ele>832</ele>
        <time>2018-04-19T06:44:33Z</time>
      </trkpt>
      <trkpt lat="44.82385" lon="2.66641">
        <ele>833</ele>
        <time>2018-04-19T06:43:33Z</time>
      </trkpt>
      <trkpt lat="44.82389" lon="2.66642">
        <ele>833</ele>
        <time>2018-04-19T06:42:33Z</time>
      </trkpt>
      <trkpt lat="44.8234" lon="2.66955">
        <ele>827</ele>
        <time>2018-04-19T06:41:33Z</time>
      </trkpt>
      <trkpt lat="44.823" lon="2.67208">
        <ele>818</ele>
        <time>2018-04-19T06:40:33Z</time>
      </trkpt>
      <trkpt lat="44.82562" lon="2.67307">
        <ele>807</ele>
        <time>2018-04-19T06:39:33Z</time>
      </trkpt>
      <trkpt lat="44.82435" lon="2.67357">
        <ele>783</ele>
        <time>2018-04-19T06:38:33Z</time>
      </trkpt>
      <trkpt lat="44.82425" lon="2.67336">
        <ele>784</ele>
        <time>2018-04-19T06:37:33Z</time>
      </trkpt>
      <trkpt lat="44.82415" lon="2.67324">
        <ele>790</ele>
        <time>2018-04-19T06:36:33Z</time>
      </trkpt>
      <trkpt lat="44.82402" lon="2.67316">
        <ele>795</ele>
        <time>2018-04-19T06:35:33Z</time>
      </trkpt>
      <trkpt lat="44.82386" lon="2.67312">
        <ele>797</ele>
        <time>2018-04-19T06:34:33Z</time>
      </trkpt>
      <trkpt lat="44.82373" lon="2.67314">
        <ele>798</ele>
        <time>2018-04-19T06:33:33Z</time>
      </trkpt>
      <trkpt lat="44.82358" lon="2.67321">
        <ele>796</ele>
        <time>2018-04-19T06:32:33Z</time>
      </trkpt>
      <trkpt lat="44.82339" lon="2.67333">
        <ele>792</ele>
        <time>2018-04-19T06:31:33Z</time>
      </trkpt>
      <trkpt lat="44.82314" lon="2.67348">
        <ele>788</ele>
        <time>2018-04-19T06:30:33Z</time>
      </trkpt>
      <trkpt lat="44.82295" lon="2.67357">
        <ele>788</ele>
        <time>2018-04-19T06:29:33Z</time>
      </trkpt>
      <trkpt lat="44.82259" lon="2.67362">
        <ele>790</ele>
        <time>2018-04-19T06:28:33Z</time>
      </trkpt>
      <trkpt lat="44.82238" lon="2.67365">
        <ele>796</ele>
        <time>2018-04-19T06:27:33Z</time>
      </trkpt>
      <trkpt lat="44.82218" lon="2.67373">
        <ele>795</ele>
        <time>2018-04-19T06:26:33Z</time>
      </trkpt>
      <trkpt lat="44.82206" lon="2.67383">
        <ele>795</ele>
        <time>2018-04-19T06:25:33Z</time>
      </trkpt>
      <trkpt lat="44.82193" lon="2.67394">
        <ele>794</ele>
        <time>2018-04-19T06:24:33Z</time>
      </trkpt>
      <trkpt lat="44.82184" lon="2.67414">
        <ele>793</ele>
        <time>2018-04-19T06:23:33Z</time>
      </trkpt>
      <trkpt lat="44.82163" lon="2.6747">
        <ele>786</ele>
        <time>2018-04-19T06:22:33Z</time>
      </trkpt>
      <trkpt lat="44.82158" lon="2.67478">
        <ele>785</ele>
        <time>2018-04-19T06:21:33Z</time>
      </trkpt>
      <trkpt lat="44.82147" lon="2.67491">
        <ele>784</ele>
        <time>2018-04-19T06:20:33Z</time>
      </trkpt>
      <trkpt lat="44.82141" lon="2.67495">
        <ele>785</ele>
        <time>2018-04-19T06:19:33Z</time>
      </trkpt>
      <trkpt lat="44.82091" lon="2.67497">
        <ele>788</ele>
        <time>2018-04-19T06:18:33Z</time>
      </trkpt>
      <trkpt lat="44.8208" lon="2.67498">
        <ele>790</ele>
        <time>2018-04-19T06:17:33Z</time>
      </trkpt>
      <trkpt lat="44.82069" lon="2.675">
        <ele>793</ele>
        <time>2018-04-19T06:16:33Z</time>
      </trkpt>
      <trkpt lat="44.82064" lon="2.67502">
        <ele>789</ele>
        <time>2018-04-19T06:15:33Z</time>
      </trkpt>
      <trkpt lat="44.82046" lon="2.67516">
        <ele>790</ele>
        <time>2018-04-19T06:14:33Z</time>
      </trkpt>
      <trkpt lat="44.82026" lon="2.6753">
        <ele>791</ele>
        <time>2018-04-19T06:13:33Z</time>
      </trkpt>
      <trkpt lat="44.82" lon="2.67548">
        <ele>790</ele>
        <time>2018-04-19T06:12:33Z</time>
      </trkpt>
      <trkpt lat="44.81992" lon="2.67553">
        <ele>797</ele>
        <time>2018-04-19T06:11:33Z</time>
      </trkpt>
      <trkpt lat="44.8198" lon="2.67559">
        <ele>797</ele>
        <time>2018-04-19T06:10:33Z</time>
      </trkpt>
      <trkpt lat="44.81962" lon="2.6756">
        <ele>798</ele>
        <time>2018-04-19T06:09:33Z</time>
      </trkpt>
      <trkpt lat="44.81814" lon="2.67549">
        <ele>806</ele>
        <time>2018-04-19T06:08:33Z</time>
      </trkpt>
      <trkpt lat="44.81793" lon="2.67546">
        <ele>806</ele>
        <time>2018-04-19T06:07:33Z</time>
      </trkpt>
      <trkpt lat="44.81776" lon="2.67543">
        <ele>807</ele>
        <time>2018-04-19T06:06:33Z</time>
      </trkpt>
      <trkpt lat="44.81703" lon="2.67531">
        <ele>808</ele>
        <time>2018-04-19T06:05:33Z</time>
      </trkpt>
      <trkpt lat="44.8169" lon="2.67528">
        <ele>808</ele>
        <time>2018-04-19T06:04:33Z</time>
      </trkpt>
      <trkpt lat="44.81672" lon="2.67523">
        <ele>808</ele>
        <time>2018-04-19T06:03:33Z</time>
      </trkpt>
      <trkpt lat="44.81668" lon="2.67521">
        <ele>808</ele>
        <time>2018-04-19T06:02:33Z</time>
      </trkpt>
      <trkpt lat="44.81654" lon="2.67513">
        <ele>808</ele>
        <time>2018-04-19T06:01:33Z</time>
      </trkpt>
      <trkpt lat="44.81643" lon="2.67505">
        <ele>808</ele>
        <time>2018-04-19T06:00:33Z</time>
      </trkpt>
      <trkpt lat="44.81635" lon="2.67499">
        <ele>807</ele>
        <time>2018-04-19T05:59:33Z</time>
      </trkpt>
      <trkpt lat="44.81628" lon="2.67491">
        <ele>807</ele>
        <time>2018-04-19T05:58:33Z</time>
      </trkpt>
      <trkpt lat="44.81603" lon="2.67459">
        <ele>807</ele>
        <time>2018-04-19T05:57:33Z</time>
      </trkpt>
      <trkpt lat="44.81599" lon="2.67455">
        <ele>807</ele>
        <time>2018-04-19T05:56:33Z</time>
      </trkpt>
      <trkpt lat="44.81586" lon="2.67442">
        <ele>807</ele>
        <time>2018-04-19T05:55:33Z</time>
      </trkpt>
      <trkpt lat="44.81581" lon="2.67435">
        <ele>804</ele>
        <time>2018-04-19T05:54:33Z</time>
      </trkpt>
      <trkpt lat="44.81574" lon="2.67422">
        <ele>804</ele>
        <time>2018-04-19T05:53:33Z</time>
      </trkpt>
      <trkpt lat="44.81566" lon="2.67404">
        <ele>803</ele>
        <time>2018-04-19T05:52:33Z</time>
      </trkpt>
      <trkpt lat="44.81563" lon="2.67396">
        <ele>802</ele>
        <time>2018-04-19T05:51:33Z</time>
      </trkpt>
      <trkpt lat="44.81557" lon="2.67381">
        <ele>801</ele>
        <time>2018-04-19T05:50:33Z</time>
      </trkpt>
      <trkpt lat="44.81553" lon="2.67373">
        <ele>801</ele>
        <time>2018-04-19T05:49:33Z</time>
      </trkpt>
      <trkpt lat="44.81547" lon="2.67364">
        <ele>801</ele>
        <time>2018-04-19T05:48:33Z</time>
      </trkpt>
      <trkpt lat="44.81534" lon="2.67346">
        <ele>800</ele>
        <time>2018-04-19T05:47:33Z</time>
      </trkpt>
      <trkpt lat="44.81524" lon="2.67331">
        <ele>800</ele>
        <time>2018-04-19T05:46:33Z</time>
      </trkpt>
      <trkpt lat="44.81519" lon="2.67325">
        <ele>800</ele>
        <time>2018-04-19T05:45:33Z</time>
      </trkpt>
      <trkpt lat="44.81514" lon="2.6732">
        <ele>800</ele>
        <time>2018-04-19T05:44:33Z</time>
      </trkpt>
      <trkpt lat="44.81508" lon="2.67316">
        <ele>800</ele>
        <time>2018-04-19T05:43:33Z</time>
      </trkpt>
      <trkpt lat="44.81503" lon="2.67311">
        <ele>800</ele>
        <time>2018-04-19T05:42:33Z</time>
      </trkpt>
      <trkpt lat="44.81497" lon="2.67308">
        <ele>797</ele>
        <time>2018-04-19T05:41:33Z</time>
      </trkpt>
      <trkpt lat="44.81453" lon="2.67294">
        <ele>796</ele>
        <time>2018-04-19T05:40:33Z</time>
      </trkpt>
      <trkpt lat="44.81435" lon="2.6729">
        <ele>795</ele>
        <time>2018-04-19T05:39:33Z</time>
      </trkpt>
      <trkpt lat="44.81423" lon="2.67288">
        <ele>795</ele>
        <time>2018-04-19T05:38:33Z</time>
      </trkpt>
      <trkpt lat="44.81419" lon="2.67286">
        <ele>795</ele>
        <time>2018-04-19T05:37:33Z</time>
      </trkpt>
      <trkpt lat="44.81417" lon="2.67285">
        <ele>795</ele>
        <time>2018-04-19T05:36:33Z</time>
      </trkpt>
      <trkpt lat="44.81415" lon="2.67283">
        <ele>791</ele>
        <time>2018-04-19T05:35:33Z</time>
      </trkpt>
      <trkpt lat="44.8141" lon="2.67279">
        <ele>791</ele>
        <time>2018-04-19T05:34:33Z</time>
      </trkpt>
      <trkpt lat="44.81404" lon="2.67273">
        <ele>791</ele>
        <time>2018-04-19T05:33:33Z</time>
      </trkpt>
      <trkpt lat="44.81372" lon="2.6724">
        <ele>795</ele>
        <time>2018-04-19T05:32:33Z</time>
      </trkpt>
      <trkpt lat="44.8136" lon="2.67239">
        <ele>794</ele>
        <time>2018-04-19T05:31:33Z</time>
      </trkpt>
      <trkpt lat="44.81356" lon="2.67231">
        <ele>794</ele>
        <time>2018-04-19T05:30:33Z</time>
      </trkpt>
      <trkpt lat="44.81347" lon="2.67218">
        <ele>795</ele>
        <time>2018-04-19T05:29:33Z</time>
      </trkpt>
      <trkpt lat="44.8134" lon="2.67213">
        <ele>795</ele>
        <time>2018-04-19T05:28:33Z</time>
      </trkpt>
      <trkpt lat="44.81309" lon="2.67199">
        <ele>793</ele>
        <time>2018-04-19T05:27:33Z</time>
      </trkpt>
      <trkpt lat="44.81285" lon="2.67191">
        <ele>793</ele>
        <time>2018-04-19T05:26:33Z</time>
      </trkpt>
      <trkpt lat="44.81235" lon="2.67171">
        <ele>792</ele>
        <time>2018-04-19T05:25:33Z</time>
      </trkpt>
      <trkpt lat="44.81225" lon="2.67168">
        <ele>791</ele>
        <time>2018-04-19T05:24:33Z</time>
      </trkpt>
      <trkpt lat="44.81222" lon="2.67169">
        <ele>791</ele>
        <time>2018-04-19T05:23:33Z</time>
      </trkpt>
      <trkpt lat="44.81205" lon="2.6717">
        <ele>790</ele>
        <time>2018-04-19T05:22:33Z</time>
      </trkpt>
      <trkpt lat="44.812" lon="2.67171">
        <ele>790</ele>
        <time>2018-04-19T05:21:33Z</time>
      </trkpt>
      <trkpt lat="44.81188" lon="2.67174">
        <ele>790</ele>
        <time>2018-04-19T05:20:33Z</time>
      </trkpt>
      <trkpt lat="44.81182" lon="2.67177">
        <ele>790</ele>
        <time>2018-04-19T05:19:33Z</time>
      </trkpt>
      <trkpt lat="44.81163" lon="2.67196">
        <ele>789</ele>
        <time>2018-04-19T05:18:33Z</time>
      </trkpt>
      <trkpt lat="44.81147" lon="2.67214">
        <ele>788</ele>
        <time>2018-04-19T05:17:33Z</time>
      </trkpt>
      <trkpt lat="44.81141" lon="2.6722">
        <ele>788</ele>
        <time>2018-04-19T05:16:33Z</time>
      </trkpt>
      <trkpt lat="44.81127" lon="2.67233">
        <ele>788</ele>
        <time>2018-04-19T05:15:33Z</time>
      </trkpt>
      <trkpt lat="44.81123" lon="2.67238">
        <ele>788</ele>
        <time>2018-04-19T05:14:33Z</time>
      </trkpt>
      <trkpt lat="44.8112" lon="2.67242">
        <ele>788</ele>
        <time>2018-04-19T05:13:33Z</time>
      </trkpt>
      <trkpt lat="44.81116" lon="2.6725">
        <ele>788</ele>
        <time>2018-04-19T05:12:33Z</time>
      </trkpt>
      <trkpt lat="44.81109" lon="2.67262">
        <ele>783</ele>
        <time>2018-04-19T05:11:33Z</time>
      </trkpt>
      <trkpt lat="44.81104" lon="2.67277">
        <ele>783</ele>
        <time>2018-04-19T05:10:33Z</time>
      </trkpt>
      <trkpt lat="44.81096" lon="2.67299">
        <ele>781</ele>
        <time>2018-04-19T05:09:33Z</time>
      </trkpt>
      <trkpt lat="44.81091" lon="2.67318">
        <ele>780</ele>
        <time>2018-04-19T05:08:33Z</time>
      </trkpt>
      <trkpt lat="44.81088" lon="2.67332">
        <ele>779</ele>
        <time>2018-04-19T05:07:33Z</time>
      </trkpt>
      <trkpt lat="44.81087" lon="2.6734">
        <ele>777</ele>
        <time>2018-04-19T05:06:33Z</time>
      </trkpt>
      <trkpt lat="44.81084" lon="2.67363">
        <ele>773</ele>
        <time>2018-04-19T05:05:33Z</time>
      </trkpt>
      <trkpt lat="44.81083" lon="2.67367">
        <ele>775</ele>
        <time>2018-04-19T05:04:33Z</time>
      </trkpt>
      <trkpt lat="44.81079" lon="2.67389">
        <ele>773</ele>
        <time>2018-04-19T05:03:33Z</time>
      </trkpt>
      <trkpt lat="44.81074" lon="2.67409">
        <ele>772</ele>
        <time>2018-04-19T05:02:33Z</time>
      </trkpt>
      <trkpt lat="44.81068" lon="2.67439">
        <ele>768</ele>
        <time>2018-04-19T05:01:33Z</time>
      </trkpt>
      <trkpt lat="44.81065" lon="2.67448">
        <ele>768</ele>
        <time>2018-04-19T05:00:33Z</time>
      </trkpt>
      <trkpt lat="44.81042" lon="2.67526">
        <ele>764</ele>
        <time>2018-04-19T04:59:33Z</time>
      </trkpt>
      <trkpt lat="44.81039" lon="2.67534">
        <ele>763</ele>
        <time>2018-04-19T04:58:33Z</time>
      </trkpt>
      <trkpt lat="44.81028" lon="2.67565">
        <ele>763</ele>
        <time>2018-04-19T04:57:33Z</time>
      </trkpt>
      <trkpt lat="44.81023" lon="2.67576">
        <ele>762</ele>
        <time>2018-04-19T04:56:33Z</time>
      </trkpt>
      <trkpt lat="44.81013" lon="2.67598">
        <ele>760</ele>
        <time>2018-04-19T04:55:33Z</time>
      </trkpt>
      <trkpt lat="44.81009" lon="2.67609">
        <ele>760</ele>
        <time>2018-04-19T04:54:33Z</time>
      </trkpt>
      <trkpt lat="44.81006" lon="2.67619">
        <ele>759</ele>
        <time>2018-04-19T04:53:33Z</time>
      </trkpt>
      <trkpt lat="44.81005" lon="2.67628">
        <ele>759</ele>
        <time>2018-04-19T04:52:33Z</time>
      </trkpt>
      <trkpt lat="44.81003" lon="2.67643">
        <ele>759</ele>
        <time>2018-04-19T04:51:33Z</time>
      </trkpt>
      <trkpt lat="44.81001" lon="2.67687">
        <ele>754</ele>
        <time>2018-04-19T04:50:33Z</time>
      </trkpt>
      <trkpt lat="44.81" lon="2.67731">
        <ele>750</ele>
        <time>2018-04-19T04:49:33Z</time>
      </trkpt>
      <trkpt lat="44.80999" lon="2.67738">
        <ele>747</ele>
        <time>2018-04-19T04:48:33Z</time>
      </trkpt>
      <trkpt lat="44.80997" lon="2.67739">
        <ele>747</ele>
        <time>2018-04-19T04:47:33Z</time>
      </trkpt>
      <trkpt lat="44.80995" lon="2.67741">
        <ele>746</ele>
        <time>2018-04-19T04:46:33Z</time>
      </trkpt>
      <trkpt lat="44.80985" lon="2.67743">
        <ele>746</ele>
        <time>2018-04-19T04:45:33Z</time>
      </trkpt>
      <trkpt lat="44.80965" lon="2.67746">
        <ele>744</ele>
        <time>2018-04-19T04:44:33Z</time>
      </trkpt>
      <trkpt lat="44.80948" lon="2.6775">
        <ele>736</ele>
        <time>2018-04-19T04:43:33Z</time>
      </trkpt>
      <trkpt lat="44.80944" lon="2.67752">
        <ele>736</ele>
        <time>2018-04-19T04:42:33Z</time>
      </trkpt>
      <trkpt lat="44.80949" lon="2.67764">
        <ele>736</ele>
        <time>2018-04-19T04:41:33Z</time>
      </trkpt>
      <trkpt lat="44.80959" lon="2.67782">
        <ele>736</ele>
        <time>2018-04-19T04:40:33Z</time>
      </trkpt>
      <trkpt lat="44.80974" lon="2.678">
        <ele>736</ele>
        <time>2018-04-19T04:39:33Z</time>
      </trkpt>
      <trkpt lat="44.80991" lon="2.6782">
        <ele>735</ele>
        <time>2018-04-19T04:38:33Z</time>
      </trkpt>
      <trkpt lat="44.81007" lon="2.67843">
        <ele>733</ele>
        <time>2018-04-19T04:37:33Z</time>
      </trkpt>
      <trkpt lat="44.81022" lon="2.67867">
        <ele>731</ele>
        <time>2018-04-19T04:36:33Z</time>
      </trkpt>
      <trkpt lat="44.81029" lon="2.67877">
        <ele>731</ele>
        <time>2018-04-19T04:35:33Z</time>
      </trkpt>
      <trkpt lat="44.81035" lon="2.67884">
        <ele>730</ele>
        <time>2018-04-19T04:34:33Z</time>
      </trkpt>
      <trkpt lat="44.8104" lon="2.67889">
        <ele>730</ele>
        <time>2018-04-19T04:33:33Z</time>
      </trkpt>
      <trkpt lat="44.81057" lon="2.67896">
        <ele>730</ele>
        <time>2018-04-19T04:32:33Z</time>
      </trkpt>
      <trkpt lat="44.81064" lon="2.67897">
        <ele>730</ele>
        <time>2018-04-19T04:31:33Z</time>
      </trkpt>
      <trkpt lat="44.81075" lon="2.679">
        <ele>730</ele>
        <time>2018-04-19T04:30:33Z</time>
      </trkpt>
      <trkpt lat="44.81081" lon="2.67904">
        <ele>730</ele>
        <time>2018-04-19T04:29:33Z</time>
      </trkpt>
      <trkpt lat="44.8109" lon="2.67913">
        <ele>730</ele>
        <time>2018-04-19T04:28:33Z</time>
      </trkpt>
      <trkpt lat="44.81094" lon="2.67919">
        <ele>731</ele>
        <time>2018-04-19T04:27:33Z</time>
      </trkpt>
      <trkpt lat="44.81096" lon="2.67922">
        <ele>731</ele>
        <time>2018-04-19T04:26:33Z</time>
      </trkpt>
      <trkpt lat="44.81097" lon="2.67925">
        <ele>731</ele>
        <time>2018-04-19T04:25:33Z</time>
      </trkpt>
      <trkpt lat="44.81098" lon="2.67927">
        <ele>732</ele>
        <time>2018-04-19T04:24:33Z</time>
      </trkpt>
      <trkpt lat="44.81096" lon="2.67932">
        <ele>732</ele>
        <time>2018-04-19T04:23:33Z</time>
      </trkpt>
      <trkpt lat="44.81094" lon="2.67937">
        <ele>732</ele>
        <time>2018-04-19T04:22:33Z</time>
      </trkpt>
      <trkpt lat="44.81089" lon="2.67945">
        <ele>732</ele>
        <time>2018-04-19T04:21:33Z</time>
      </trkpt>
      <trkpt lat="44.81085" lon="2.67954">
        <ele>732</ele>
        <time>2018-04-19T04:20:33Z</time>
      </trkpt>
      <trkpt lat="44.81081" lon="2.67964">
        <ele>729</ele>
        <time>2018-04-19T04:19:33Z</time>
      </trkpt>
      <trkpt lat="44.8108" lon="2.67973">
        <ele>729</ele>
        <time>2018-04-19T04:18:33Z</time>
      </trkpt>
      <trkpt lat="44.81079" lon="2.67981">
        <ele>729</ele>
        <time>2018-04-19T04:17:33Z</time>
      </trkpt>
      <trkpt lat="44.81078" lon="2.67987">
        <ele>729</ele>
        <time>2018-04-19T04:16:33Z</time>
      </trkpt>
      <trkpt lat="44.81076" lon="2.67995">
        <ele>729</ele>
        <time>2018-04-19T04:15:33Z</time>
      </trkpt>
      <trkpt lat="44.81072" lon="2.68003">
        <ele>731</ele>
        <time>2018-04-19T04:14:33Z</time>
      </trkpt>
      <trkpt lat="44.81066" lon="2.68009">
        <ele>731</ele>
        <time>2018-04-19T04:13:33Z</time>
      </trkpt>
      <trkpt lat="44.81057" lon="2.68018">
        <ele>731</ele>
        <time>2018-04-19T04:12:33Z</time>
      </trkpt>
      <trkpt lat="44.81043" lon="2.68027">
        <ele>731</ele>
        <time>2018-04-19T04:11:33Z</time>
      </trkpt>
      <trkpt lat="44.81026" lon="2.68036">
        <ele>731</ele>
        <time>2018-04-19T04:10:33Z</time>
      </trkpt>
      <trkpt lat="44.81016" lon="2.68038">
        <ele>731</ele>
        <time>2018-04-19T04:09:33Z</time>
      </trkpt>
      <trkpt lat="44.81004" lon="2.6804">
        <ele>731</ele>
        <time>2018-04-19T04:08:33Z</time>
      </trkpt>
      <trkpt lat="44.80994" lon="2.68039">
        <ele>731</ele>
        <time>2018-04-19T04:07:33Z</time>
      </trkpt>
      <trkpt lat="44.80982" lon="2.68038">
        <ele>732</ele>
        <time>2018-04-19T04:06:33Z</time>
      </trkpt>
      <trkpt lat="44.80971" lon="2.68036">
        <ele>732</ele>
        <time>2018-04-19T04:05:33Z</time>
      </trkpt>
      <trkpt lat="44.80959" lon="2.68031">
        <ele>732</ele>
        <time>2018-04-19T04:04:33Z</time>
      </trkpt>
      <trkpt lat="44.80921" lon="2.68012">
        <ele>730</ele>
        <time>2018-04-19T04:03:33Z</time>
      </trkpt>
      <trkpt lat="44.80899" lon="2.68011">
        <ele>734</ele>
        <time>2018-04-19T04:02:33Z</time>
      </trkpt>
      <trkpt lat="44.8089" lon="2.6801">
        <ele>735</ele>
        <time>2018-04-19T04:01:33Z</time>
      </trkpt>
      <trkpt lat="44.8087" lon="2.68011">
        <ele>737</ele>
        <time>2018-04-19T04:00:33Z</time>
      </trkpt>
      <trkpt lat="44.80851" lon="2.6801">
        <ele>738</ele>
        <time>2018-04-19T03:59:33Z</time>
      </trkpt>
      <trkpt lat="44.8084" lon="2.68008">
        <ele>738</ele>
        <time>2018-04-19T03:58:33Z</time>
      </trkpt>
      <trkpt lat="44.80816" lon="2.68004">
        <ele>738</ele>
        <time>2018-04-19T03:57:33Z</time>
      </trkpt>
      <trkpt lat="44.80796" lon="2.68003">
        <ele>738</ele>
        <time>2018-04-19T03:56:33Z</time>
      </trkpt>
      <trkpt lat="44.80785" lon="2.68004">
        <ele>737</ele>
        <time>2018-04-19T03:55:33Z</time>
      </trkpt>
      <trkpt lat="44.80768" lon="2.68009">
        <ele>735</ele>
        <time>2018-04-19T03:54:33Z</time>
      </trkpt>
      <trkpt lat="44.80759" lon="2.68014">
        <ele>735</ele>
        <time>2018-04-19T03:53:33Z</time>
      </trkpt>
      <trkpt lat="44.8075" lon="2.68021">
        <ele>732</ele>
        <time>2018-04-19T03:52:33Z</time>
      </trkpt>
      <trkpt lat="44.80741" lon="2.6803">
        <ele>733</ele>
        <time>2018-04-19T03:51:33Z</time>
      </trkpt>
      <trkpt lat="44.8073" lon="2.68041">
        <ele>734</ele>
        <time>2018-04-19T03:50:33Z</time>
      </trkpt>
      <trkpt lat="44.80722" lon="2.68051">
        <ele>734</ele>
        <time>2018-04-19T03:49:33Z</time>
      </trkpt>
      <trkpt lat="44.80715" lon="2.68062">
        <ele>735</ele>
        <time>2018-04-19T03:48:33Z</time>
      </trkpt>
      <trkpt lat="44.80707" lon="2.68072">
        <ele>735</ele>
        <time>2018-04-19T03:47:33Z</time>
      </trkpt>
      <trkpt lat="44.80699" lon="2.68078">
        <ele>735</ele>
        <time>2018-04-19T03:46:33Z</time>
      </trkpt>
      <trkpt lat="44.80692" lon="2.68084">
        <ele>741</ele>
        <time>2018-04-19T03:45:33Z</time>
      </trkpt>
      <trkpt lat="44.80686" lon="2.68086">
        <ele>741</ele>
        <time>2018-04-19T03:44:33Z</time>
      </trkpt>
      <trkpt lat="44.80679" lon="2.68088">
        <ele>739</ele>
        <time>2018-04-19T03:43:33Z</time>
      </trkpt>
      <trkpt lat="44.80671" lon="2.68089">
        <ele>738</ele>
        <time>2018-04-19T03:42:33Z</time>
      </trkpt>
      <trkpt lat="44.80646" lon="2.68091">
        <ele>734</ele>
        <time>2018-04-19T03:41:33Z</time>
      </trkpt>
      <trkpt lat="44.80636" lon="2.68093">
        <ele>733</ele>
        <time>2018-04-19T03:40:33Z</time>
      </trkpt>
      <trkpt lat="44.80626" lon="2.68096">
        <ele>732</ele>
        <time>2018-04-19T03:39:33Z</time>
      </trkpt>
      <trkpt lat="44.80617" lon="2.68101">
        <ele>731</ele>
        <time>2018-04-19T03:38:33Z</time>
      </trkpt>
      <trkpt lat="44.80594" lon="2.68117">
        <ele>730</ele>
        <time>2018-04-19T03:37:33Z</time>
      </trkpt>
      <trkpt lat="44.80577" lon="2.68131">
        <ele>722</ele>
        <time>2018-04-19T03:36:33Z</time>
      </trkpt>
      <trkpt lat="44.80568" lon="2.68138">
        <ele>723</ele>
        <time>2018-04-19T03:35:33Z</time>
      </trkpt>
      <trkpt lat="44.80561" lon="2.68146">
        <ele>723</ele>
        <time>2018-04-19T03:34:33Z</time>
      </trkpt>
      <trkpt lat="44.80552" lon="2.68156">
        <ele>723</ele>
        <time>2018-04-19T03:33:33Z</time>
      </trkpt>
      <trkpt lat="44.80546" lon="2.68165">
        <ele>722</ele>
        <time>2018-04-19T03:32:33Z</time>
      </trkpt>
      <trkpt lat="44.80542" lon="2.68173">
        <ele>728</ele>
        <time>2018-04-19T03:31:33Z</time>
      </trkpt>
      <trkpt lat="44.8054" lon="2.68182">
        <ele>729</ele>
        <time>2018-04-19T03:30:33Z</time>
      </trkpt>
      <trkpt lat="44.80534" lon="2.68229">
        <ele>730</ele>
        <time>2018-04-19T03:29:33Z</time>
      </trkpt>
      <trkpt lat="44.80535" lon="2.68229">
        <ele>730</ele>
        <time>2018-04-19T03:28:33Z</time>
      </trkpt>
      <trkpt lat="44.80411" lon="2.67662">
        <ele>759</ele>
        <time>2018-04-19T03:27:33Z</time>
      </trkpt>
      <trkpt lat="44.80412" lon="2.67631">
        <ele>759</ele>
        <time>2018-04-19T03:26:33Z</time>
      </trkpt>
      <trkpt lat="44.80411" lon="2.6761">
        <ele>759</ele>
        <time>2018-04-19T03:25:33Z</time>
      </trkpt>
      <trkpt lat="44.8041" lon="2.67594">
        <ele>759</ele>
        <time>2018-04-19T03:24:33Z</time>
      </trkpt>
      <trkpt lat="44.80405" lon="2.67513">
        <ele>762</ele>
        <time>2018-04-19T03:23:33Z</time>
      </trkpt>
      <trkpt lat="44.80403" lon="2.67497">
        <ele>764</ele>
        <time>2018-04-19T03:22:33Z</time>
      </trkpt>
      <trkpt lat="44.80396" lon="2.67455">
        <ele>767</ele>
        <time>2018-04-19T03:21:33Z</time>
      </trkpt>
      <trkpt lat="44.80393" lon="2.67443">
        <ele>767</ele>
        <time>2018-04-19T03:20:33Z</time>
      </trkpt>
      <trkpt lat="44.8039" lon="2.67432">
        <ele>767</ele>
        <time>2018-04-19T03:19:33Z</time>
      </trkpt>
      <trkpt lat="44.80387" lon="2.67425">
        <ele>768</ele>
        <time>2018-04-19T03:18:33Z</time>
      </trkpt>
      <trkpt lat="44.8038" lon="2.67415">
        <ele>771</ele>
        <time>2018-04-19T03:17:33Z</time>
      </trkpt>
      <trkpt lat="44.80374" lon="2.6741">
        <ele>772</ele>
        <time>2018-04-19T03:16:33Z</time>
      </trkpt>
      <trkpt lat="44.80356" lon="2.67391">
        <ele>772</ele>
        <time>2018-04-19T03:15:33Z</time>
      </trkpt>
      <trkpt lat="44.80348" lon="2.67381">
        <ele>773</ele>
        <time>2018-04-19T03:14:33Z</time>
      </trkpt>
      <trkpt lat="44.80335" lon="2.67362">
        <ele>774</ele>
        <time>2018-04-19T03:13:33Z</time>
      </trkpt>
      <trkpt lat="44.80316" lon="2.67336">
        <ele>774</ele>
        <time>2018-04-19T03:12:33Z</time>
      </trkpt>
      <trkpt lat="44.80295" lon="2.67305">
        <ele>776</ele>
        <time>2018-04-19T03:11:33Z</time>
      </trkpt>
      <trkpt lat="44.80232" lon="2.67212">
        <ele>776</ele>
        <time>2018-04-19T03:10:33Z</time>
      </trkpt>
      <trkpt lat="44.80186" lon="2.67149">
        <ele>778</ele>
        <time>2018-04-19T03:09:33Z</time>
      </trkpt>
      <trkpt lat="44.8016" lon="2.67114">
        <ele>779</ele>
        <time>2018-04-19T03:08:33Z</time>
      </trkpt>
      <trkpt lat="44.80108" lon="2.67143">
        <ele>778</ele>
      </trkpt>
      <trkpt lat="44.80108" lon="2.67144">
        <ele>778</ele>
      </trkpt>
      <trkpt lat="44.8004" lon="2.67223">
        <ele>774</ele>
      </trkpt>
      <trkpt lat="44.79942" lon="2.67212">
        <ele>778</ele>
      </trkpt>
      <trkpt lat="44.79865" lon="2.67217">
        <ele>780</ele>
      </trkpt>
      <trkpt lat="44.79674" lon="2.67183">
        <ele>778</ele>
      </trkpt>
      <trkpt lat="44.79596" lon="2.67188">
        <ele>773</ele>
      </trkpt>
      <trkpt lat="44.79576" lon="2.67198">
        <ele>770</ele>
      </trkpt>
      <trkpt lat="44.79574" lon="2.67197">
        <ele>770</ele>
      </trkpt>
      <trkpt lat="44.7958" lon="2.67198">
        <ele>770</ele>
      </trkpt>
      <trkpt lat="44.79583" lon="2.67298">
        <ele>769</ele>
      </trkpt>
      <trkpt lat="44.79572" lon="2.67305">
        <ele>769</ele>
      </trkpt>
      <trkpt lat="44.79515" lon="2.67363">
        <ele>769</ele>
      </trkpt>
      <trkpt lat="44.79515" lon="2.67363">
        <ele>769</ele>
      </trkpt>
      <trkpt lat="44.79386" lon="2.67484">
        <ele>767</ele>
      </trkpt>
      <trkpt lat="44.79222" lon="2.67605">
        <ele>768</ele>
      </trkpt>
      <trkpt lat="44.79222" lon="2.67605">
        <ele>768</ele>
      </trkpt>
      <trkpt lat="44.79114" lon="2.67739">
        <ele>766</ele>
      </trkpt>
      <trkpt lat="44.79049" lon="2.678">
        <ele>758</ele>
      </trkpt>
      <trkpt lat="44.79049" lon="2.678">
        <ele>758</ele>
      </trkpt>
      <trkpt lat="44.78999" lon="2.67841">
        <ele>753</ele>
      </trkpt>
      <trkpt lat="44.78938" lon="2.67868">
        <ele>749</ele>
      </trkpt>
      <trkpt lat="44.78938" lon="2.67868">
        <ele>749</ele>
      </trkpt>
      <trkpt lat="44.78826" lon="2.68001">
        <ele>739</ele>
      </trkpt>
      <trkpt lat="44.7879" lon="2.68065">
        <ele>740</ele>
      </trkpt>
      <trkpt lat="44.7879" lon="2.68065">
        <ele>740</ele>
      </trkpt>
      <trkpt lat="44.78764" lon="2.68133">
        <ele>733</ele>
      </trkpt>
      <trkpt lat="44.78746" lon="2.68201">
        <ele>740</ele>
      </trkpt>
      <trkpt lat="44.78746" lon="2.68201">
        <ele>740</ele>
      </trkpt>
      <trkpt lat="44.78733" lon="2.68305">
        <ele>720</ele>
      </trkpt>
      <trkpt lat="44.78678" lon="2.68364">
        <ele>706</ele>
      </trkpt>
      <trkpt lat="44.78678" lon="2.68364">
        <ele>706</ele>
      </trkpt>
      <trkpt lat="44.78663" lon="2.68375">
        <ele>701</ele>
      </trkpt>
      <trkpt lat="44.78638" lon="2.68379">
        <ele>698</ele>
      </trkpt>
      <trkpt lat="44.78638" lon="2.68379">
        <ele>698</ele>
      </trkpt>
      <trkpt lat="44.78623" lon="2.68364">
        <ele>697</ele>
      </trkpt>
      <trkpt lat="44.78615" lon="2.68296">
        <ele>714</ele>
      </trkpt>
      <trkpt lat="44.78615" lon="2.68296">
        <ele>714</ele>
      </trkpt>
      <trkpt lat="44.78611" lon="2.68274">
        <ele>716</ele>
      </trkpt>
      <trkpt lat="44.78604" lon="2.68258">
        <ele>716</ele>
      </trkpt>
      <trkpt lat="44.78604" lon="2.68258">
        <ele>716</ele>
      </trkpt>
      <trkpt lat="44.78574" lon="2.68222">
        <ele>713</ele>
      </trkpt>
      <trkpt lat="44.7853" lon="2.68203">
        <ele>708</ele>
      </trkpt>
      <trkpt lat="44.7853" lon="2.68203">
        <ele>708</ele>
      </trkpt>
      <trkpt lat="44.78505" lon="2.68132">
        <ele>726</ele>
      </trkpt>
      <trkpt lat="44.78401" lon="2.67983">
        <ele>710</ele>
      </trkpt>
      <trkpt lat="44.78401" lon="2.67983">
        <ele>710</ele>
      </trkpt>
      <trkpt lat="44.78379" lon="2.67936">
        <ele>709</ele>
      </trkpt>
      <trkpt lat="44.78325" lon="2.67877">
        <ele>698</ele>
      </trkpt>
      <trkpt lat="44.78325" lon="2.67877">
        <ele>698</ele>
      </trkpt>
      <trkpt lat="44.78279" lon="2.67835">
        <ele>694</ele>
      </trkpt>
      <trkpt lat="44.78245" lon="2.67797">
        <ele>687</ele>
      </trkpt>
      <trkpt lat="44.78245" lon="2.67797">
        <ele>687</ele>
      </trkpt>
      <trkpt lat="44.78237" lon="2.67763">
        <ele>693</ele>
      </trkpt>
      <trkpt lat="44.78257" lon="2.67694">
        <ele>711</ele>
      </trkpt>
      <trkpt lat="44.78257" lon="2.67694">
        <ele>711</ele>
      </trkpt>
      <trkpt lat="44.7826" lon="2.67622">
        <ele>709</ele>
      </trkpt>
      <trkpt lat="44.78263" lon="2.6757">
        <ele>701</ele>
      </trkpt>
      <trkpt lat="44.78263" lon="2.6757">
        <ele>701</ele>
      </trkpt>
      <trkpt lat="44.78274" lon="2.67528">
        <ele>703</ele>
      </trkpt>
      <trkpt lat="44.7827" lon="2.67482">
        <ele>695</ele>
      </trkpt>
      <trkpt lat="44.7827" lon="2.67482">
        <ele>695</ele>
      </trkpt>
      <trkpt lat="44.78265" lon="2.67455">
        <ele>694</ele>
      </trkpt>
      <trkpt lat="44.78302" lon="2.67373">
        <ele>691</ele>
      </trkpt>
      <trkpt lat="44.78302" lon="2.67373">
        <ele>691</ele>
      </trkpt>
      <trkpt lat="44.78316" lon="2.67321">
        <ele>687</ele>
      </trkpt>
      <trkpt lat="44.78328" lon="2.67218">
        <ele>677</ele>
      </trkpt>
      <trkpt lat="44.78328" lon="2.67218">
        <ele>677</ele>
      </trkpt>
      <trkpt lat="44.78331" lon="2.67169">
        <ele>688</ele>
      </trkpt>
      <trkpt lat="44.78336" lon="2.6716">
        <ele>690</ele>
      </trkpt>
      <trkpt lat="44.78336" lon="2.6716">
        <ele>690</ele>
      </trkpt>
      <trkpt lat="44.78342" lon="2.67163">
        <ele>690</ele>
      </trkpt>
      <trkpt lat="44.78345" lon="2.6719">
        <ele>698</ele>
      </trkpt>
      <trkpt lat="44.78345" lon="2.6719">
        <ele>698</ele>
      </trkpt>
      <trkpt lat="44.78354" lon="2.67209">
        <ele>700</ele>
      </trkpt>
      <trkpt lat="44.78361" lon="2.67215">
        <ele>701</ele>
      </trkpt>
      <trkpt lat="44.78361" lon="2.67215">
        <ele>701</ele>
      </trkpt>
      <trkpt lat="44.78373" lon="2.67227">
        <ele>703</ele>
      </trkpt>
      <trkpt lat="44.78376" lon="2.67244">
        <ele>704</ele>
      </trkpt>
      <trkpt lat="44.78376" lon="2.67244">
        <ele>704</ele>
      </trkpt>
      <trkpt lat="44.78365" lon="2.67274">
        <ele>709</ele>
      </trkpt>
      <trkpt lat="44.78363" lon="2.67289">
        <ele>710</ele>
      </trkpt>
      <trkpt lat="44.78363" lon="2.67289">
        <ele>710</ele>
      </trkpt>
      <trkpt lat="44.78365" lon="2.67314">
        <ele>712</ele>
      </trkpt>
      <trkpt lat="44.78369" lon="2.67327">
        <ele>713</ele>
      </trkpt>
      <trkpt lat="44.78369" lon="2.67327">
        <ele>713</ele>
      </trkpt>
      <trkpt lat="44.78375" lon="2.67325">
        <ele>714</ele>
      </trkpt>
      <trkpt lat="44.78387" lon="2.67322">
        <ele>717</ele>
      </trkpt>
      <trkpt lat="44.78387" lon="2.67322">
        <ele>717</ele>
      </trkpt>
      <trkpt lat="44.78402" lon="2.67313">
        <ele>719</ele>
      </trkpt>
      <trkpt lat="44.78417" lon="2.67309">
        <ele>727</ele>
      </trkpt>
      <trkpt lat="44.78417" lon="2.67309">
        <ele>727</ele>
      </trkpt>
      <trkpt lat="44.78431" lon="2.6731">
        <ele>727</ele>
      </trkpt>
      <trkpt lat="44.78438" lon="2.67313">
        <ele>727</ele>
      </trkpt>
      <trkpt lat="44.78438" lon="2.67313">
        <ele>727</ele>
      </trkpt>
      <trkpt lat="44.78446" lon="2.67315">
        <ele>727</ele>
      </trkpt>
      <trkpt lat="44.7847" lon="2.6733">
        <ele>728</ele>
      </trkpt>
      <trkpt lat="44.7847" lon="2.6733">
        <ele>728</ele>
      </trkpt>
      <trkpt lat="44.7851" lon="2.67364">
        <ele>739</ele>
      </trkpt>
      <trkpt lat="44.78524" lon="2.67378">
        <ele>741</ele>
      </trkpt>
      <trkpt lat="44.78524" lon="2.67378">
        <ele>741</ele>
      </trkpt>
      <trkpt lat="44.78544" lon="2.67386">
        <ele>742</ele>
      </trkpt>
      <trkpt lat="44.78615" lon="2.67373">
        <ele>746</ele>
      </trkpt>
      <trkpt lat="44.78615" lon="2.67373">
        <ele>746</ele>
      </trkpt>
      <trkpt lat="44.78708" lon="2.67369">
        <ele>751</ele>
      </trkpt>
      <trkpt lat="44.78719" lon="2.67373">
        <ele>751</ele>
      </trkpt>
      <trkpt lat="44.78719" lon="2.67373">
        <ele>751</ele>
      </trkpt>
      <trkpt lat="44.78726" lon="2.67379">
        <ele>752</ele>
      </trkpt>
      <trkpt lat="44.78733" lon="2.67391">
        <ele>752</ele>
      </trkpt>
      <trkpt lat="44.78733" lon="2.67391">
        <ele>752</ele>
      </trkpt>
      <trkpt lat="44.78738" lon="2.67403">
        <ele>753</ele>
      </trkpt>
      <trkpt lat="44.78741" lon="2.67416">
        <ele>754</ele>
      </trkpt>
      <trkpt lat="44.78741" lon="2.67416">
        <ele>754</ele>
      </trkpt>
      <trkpt lat="44.78741" lon="2.67434">
        <ele>755</ele>
      </trkpt>
      <trkpt lat="44.78753" lon="2.67435">
        <ele>757</ele>
      </trkpt>
      <trkpt lat="44.78753" lon="2.67435">
        <ele>757</ele>
      </trkpt>
      <trkpt lat="44.78988" lon="2.67398">
        <ele>763</ele>
      </trkpt>
      <trkpt lat="44.79102" lon="2.67389">
        <ele>764</ele>
      </trkpt>
      <trkpt lat="44.79102" lon="2.67389">
        <ele>764</ele>
      </trkpt>
      <trkpt lat="44.79308" lon="2.67387">
        <ele>761</ele>
      </trkpt>
      <trkpt lat="44.79359" lon="2.67377">
        <ele>763</ele>
      </trkpt>
      <trkpt lat="44.79359" lon="2.67377">
        <ele>763</ele>
      </trkpt>
      <trkpt lat="44.79398" lon="2.67359">
        <ele>764</ele>
      </trkpt>
      <trkpt lat="44.79523" lon="2.6727">
        <ele>767</ele>
      </trkpt>
      <trkpt lat="44.79523" lon="2.6727">
        <ele>767</ele>
      </trkpt>
      <trkpt lat="44.79566" lon="2.67226">
        <ele>769</ele>
      </trkpt>
      <trkpt lat="44.79567" lon="2.67196">
        <ele>769</ele>
      </trkpt>
      <trkpt lat="44.79565" lon="2.67144">
        <ele>770</ele>
      </trkpt>
      <trkpt lat="44.79514" lon="2.67027">
        <ele>768</ele>
      </trkpt>
      <trkpt lat="44.79504" lon="2.66993">
        <ele>768</ele>
      </trkpt>
      <trkpt lat="44.79468" lon="2.66955">
        <ele>763</ele>
      </trkpt>
      <trkpt lat="44.79422" lon="2.66893">
        <ele>761</ele>
      </trkpt>
      <trkpt lat="44.79356" lon="2.66724">
        <ele>756</ele>
      </trkpt>
      <trkpt lat="44.79356" lon="2.66602">
        <ele>752</ele>
      </trkpt>
      <trkpt lat="44.79373" lon="2.66543">
        <ele>750</ele>
      </trkpt>
      <trkpt lat="44.79414" lon="2.66463">
        <ele>745</ele>
      </trkpt>
      <trkpt lat="44.79414" lon="2.66463">
        <ele>745</ele>
      </trkpt>
      <trkpt lat="44.79435" lon="2.66392">
        <ele>747</ele>
      </trkpt>
      <trkpt lat="44.79448" lon="2.66355">
        <ele>745</ele>
      </trkpt>
      <trkpt lat="44.79447" lon="2.66324">
        <ele>739</ele>
      </trkpt>
      <trkpt lat="44.79467" lon="2.66309">
        <ele>740</ele>
      </trkpt>
      <trkpt lat="44.7948" lon="2.66303">
        <ele>740</ele>
      </trkpt>
      <trkpt lat="44.79478" lon="2.66293">
        <ele>740</ele>
      </trkpt>
      <trkpt lat="44.79455" lon="2.66294">
        <ele>739</ele>
      </trkpt>
      <trkpt lat="44.79431" lon="2.66287">
        <ele>737</ele>
      </trkpt>
      <trkpt lat="44.7942" lon="2.66282">
        <ele>737</ele>
      </trkpt>
      <trkpt lat="44.79394" lon="2.66281">
        <ele>732</ele>
      </trkpt>
      <trkpt lat="44.79394" lon="2.66281">
        <ele>732</ele>
      </trkpt>
      <trkpt lat="44.79364" lon="2.6631">
        <ele>730</ele>
      </trkpt>
      <trkpt lat="44.79347" lon="2.66317">
        <ele>727</ele>
      </trkpt>
      <trkpt lat="44.79328" lon="2.66309">
        <ele>730</ele>
      </trkpt>
      <trkpt lat="44.79312" lon="2.66311">
        <ele>731</ele>
      </trkpt>
      <trkpt lat="44.79293" lon="2.66326">
        <ele>733</ele>
      </trkpt>
      <trkpt lat="44.79281" lon="2.66332">
        <ele>734</ele>
      </trkpt>
      <trkpt lat="44.79259" lon="2.66337">
        <ele>734</ele>
      </trkpt>
      <trkpt lat="44.79212" lon="2.66411">
        <ele>738</ele>
      </trkpt>
      <trkpt lat="44.79208" lon="2.66443">
        <ele>730</ele>
      </trkpt>
      <trkpt lat="44.79193" lon="2.66494">
        <ele>728</ele>
      </trkpt>
      <trkpt lat="44.79193" lon="2.66494">
        <ele>728</ele>
      </trkpt>
      <trkpt lat="44.7918" lon="2.66528">
        <ele>721</ele>
      </trkpt>
      <trkpt lat="44.79152" lon="2.66567">
        <ele>722</ele>
      </trkpt>
      <trkpt lat="44.79109" lon="2.6661">
        <ele>719</ele>
      </trkpt>
      <trkpt lat="44.79081" lon="2.66655">
        <ele>722</ele>
      </trkpt>
      <trkpt lat="44.79063" lon="2.6671">
        <ele>715</ele>
      </trkpt>
      <trkpt lat="44.79057" lon="2.66751">
        <ele>703</ele>
      </trkpt>
      <trkpt lat="44.79059" lon="2.66793">
        <ele>701</ele>
      </trkpt>
      <trkpt lat="44.7902" lon="2.66846">
        <ele>695</ele>
      </trkpt>
      <trkpt lat="44.79012" lon="2.66849">
        <ele>696</ele>
      </trkpt>
      <trkpt lat="44.79001" lon="2.66851">
        <ele>696</ele>
      </trkpt>
      <trkpt lat="44.79001" lon="2.66851">
        <ele>696</ele>
      </trkpt>
      <trkpt lat="44.78986" lon="2.66841">
        <ele>695</ele>
      </trkpt>
      <trkpt lat="44.78956" lon="2.66837">
        <ele>691</ele>
      </trkpt>
      <trkpt lat="44.78923" lon="2.66795">
        <ele>703</ele>
      </trkpt>
      <trkpt lat="44.78886" lon="2.66792">
        <ele>691</ele>
      </trkpt>
      <trkpt lat="44.78867" lon="2.66786">
        <ele>690</ele>
      </trkpt>
      <trkpt lat="44.78846" lon="2.66755">
        <ele>692</ele>
      </trkpt>
      <trkpt lat="44.78828" lon="2.66742">
        <ele>696</ele>
      </trkpt>
      <trkpt lat="44.78769" lon="2.66751">
        <ele>675</ele>
      </trkpt>
      <trkpt lat="44.78748" lon="2.66731">
        <ele>689</ele>
      </trkpt>
      <trkpt lat="44.78736" lon="2.66723">
        <ele>693</ele>
      </trkpt>
      <trkpt lat="44.78736" lon="2.66723">
        <ele>693</ele>
      </trkpt>
      <trkpt lat="44.78726" lon="2.66718">
        <ele>695</ele>
      </trkpt>
      <trkpt lat="44.78649" lon="2.66721">
        <ele>684</ele>
      </trkpt>
      <trkpt lat="44.78624" lon="2.66739">
        <ele>679</ele>
      </trkpt>
      <trkpt lat="44.786" lon="2.66742">
        <ele>672</ele>
      </trkpt>
      <trkpt lat="44.78573" lon="2.66736">
        <ele>666</ele>
      </trkpt>
      <trkpt lat="44.78554" lon="2.667">
        <ele>674</ele>
      </trkpt>
      <trkpt lat="44.7853" lon="2.6667">
        <ele>676</ele>
      </trkpt>
      <trkpt lat="44.78521" lon="2.66624">
        <ele>696</ele>
      </trkpt>
      <trkpt lat="44.78513" lon="2.66616">
        <ele>697</ele>
      </trkpt>
      <trkpt lat="44.78501" lon="2.66616">
        <ele>697</ele>
      </trkpt>
      <trkpt lat="44.78501" lon="2.66616">
        <ele>697</ele>
      </trkpt>
      <trkpt lat="44.78487" lon="2.66647">
        <ele>686</ele>
      </trkpt>
      <trkpt lat="44.78463" lon="2.66682">
        <ele>669</ele>
      </trkpt>
      <trkpt lat="44.78415" lon="2.66678">
        <ele>672</ele>
      </trkpt>
      <trkpt lat="44.78377" lon="2.66615">
        <ele>690</ele>
      </trkpt>
      <trkpt lat="44.7835" lon="2.66612">
        <ele>691</ele>
      </trkpt>
      <trkpt lat="44.78327" lon="2.66631">
        <ele>694</ele>
      </trkpt>
      <trkpt lat="44.78313" lon="2.66664">
        <ele>690</ele>
      </trkpt>
      <trkpt lat="44.783" lon="2.66711">
        <ele>675</ele>
      </trkpt>
      <trkpt lat="44.78284" lon="2.66734">
        <ele>673</ele>
      </trkpt>
      <trkpt lat="44.78248" lon="2.66757">
        <ele>669</ele>
      </trkpt>
      <trkpt lat="44.78248" lon="2.66757">
        <ele>669</ele>
      </trkpt>
      <trkpt lat="44.7821" lon="2.66765">
        <ele>664</ele>
      </trkpt>
      <trkpt lat="44.78164" lon="2.66779">
        <ele>677</ele>
      </trkpt>
      <trkpt lat="44.78125" lon="2.66809">
        <ele>674</ele>
      </trkpt>
      <trkpt lat="44.7808" lon="2.66834">
        <ele>676</ele>
      </trkpt>
      <trkpt lat="44.78064" lon="2.66837">
        <ele>682</ele>
      </trkpt>
      <trkpt lat="44.78061" lon="2.66857">
        <ele>684</ele>
      </trkpt>
      <trkpt lat="44.78064" lon="2.66885">
        <ele>680</ele>
      </trkpt>
      <trkpt lat="44.78068" lon="2.66906">
        <ele>672</ele>
      </trkpt>
      <trkpt lat="44.78067" lon="2.66948">
        <ele>664</ele>
      </trkpt>
      <trkpt lat="44.7806" lon="2.66974">
        <ele>662</ele>
      </trkpt>
      <trkpt lat="44.7806" lon="2.66974">
        <ele>662</ele>
      </trkpt>
      <trkpt lat="44.78046" lon="2.66986">
        <ele>664</ele>
      </trkpt>
      <trkpt lat="44.78038" lon="2.66985">
        <ele>667</ele>
      </trkpt>
      <trkpt lat="44.78019" lon="2.67001">
        <ele>664</ele>
      </trkpt>
      <trkpt lat="44.7802" lon="2.67041">
        <ele>656</ele>
      </trkpt>
      <trkpt lat="44.78011" lon="2.67079">
        <ele>659</ele>
      </trkpt>
      <trkpt lat="44.77994" lon="2.67119">
        <ele>671</ele>
      </trkpt>
      <trkpt lat="44.77961" lon="2.67151">
        <ele>674</ele>
      </trkpt>
      <trkpt lat="44.77946" lon="2.67184">
        <ele>664</ele>
      </trkpt>
      <trkpt lat="44.77916" lon="2.67218">
        <ele>686</ele>
      </trkpt>
      <trkpt lat="44.77878" lon="2.67245">
        <ele>691</ele>
      </trkpt>
      <trkpt lat="44.77878" lon="2.67245">
        <ele>691</ele>
      </trkpt>
      <trkpt lat="44.77853" lon="2.67279">
        <ele>683</ele>
      </trkpt>
      <trkpt lat="44.77716" lon="2.67372">
        <ele>695</ele>
      </trkpt>
      <trkpt lat="44.77699" lon="2.67382">
        <ele>695</ele>
      </trkpt>
      <trkpt lat="44.77669" lon="2.67384">
        <ele>696</ele>
      </trkpt>
      <trkpt lat="44.77603" lon="2.6738">
        <ele>699</ele>
      </trkpt>
      <trkpt lat="44.77591" lon="2.67372">
        <ele>701</ele>
      </trkpt>
      <trkpt lat="44.77587" lon="2.67329">
        <ele>716</ele>
      </trkpt>
      <trkpt lat="44.77588" lon="2.67313">
        <ele>719</ele>
      </trkpt>
      <trkpt lat="44.77601" lon="2.673">
        <ele>721</ele>
      </trkpt>
      <trkpt lat="44.77618" lon="2.67302">
        <ele>721</ele>
      </trkpt>
      <trkpt lat="44.77618" lon="2.67302">
        <ele>721</ele>
      </trkpt>
      <trkpt lat="44.77636" lon="2.67292">
        <ele>722</ele>
      </trkpt>
      <trkpt lat="44.77663" lon="2.67267">
        <ele>727</ele>
      </trkpt>
      <trkpt lat="44.77712" lon="2.67242">
        <ele>734</ele>
      </trkpt>
      <trkpt lat="44.77722" lon="2.67236">
        <ele>734</ele>
      </trkpt>
      <trkpt lat="44.77716" lon="2.67219">
        <ele>735</ele>
      </trkpt>
      <trkpt lat="44.77693" lon="2.67217">
        <ele>736</ele>
      </trkpt>
      <trkpt lat="44.77672" lon="2.67195">
        <ele>738</ele>
      </trkpt>
      <trkpt lat="44.77668" lon="2.67167">
        <ele>743</ele>
      </trkpt>
      <trkpt lat="44.77683" lon="2.67118">
        <ele>744</ele>
      </trkpt>
      <trkpt lat="44.77677" lon="2.67077">
        <ele>743</ele>
      </trkpt>
      <trkpt lat="44.77677" lon="2.67077">
        <ele>743</ele>
      </trkpt>
      <trkpt lat="44.77647" lon="2.66977">
        <ele>740</ele>
      </trkpt>
      <trkpt lat="44.77634" lon="2.66921">
        <ele>739</ele>
      </trkpt>
      <trkpt lat="44.77625" lon="2.66913">
        <ele>737</ele>
      </trkpt>
      <trkpt lat="44.77603" lon="2.66913">
        <ele>737</ele>
      </trkpt>
      <trkpt lat="44.77595" lon="2.66913">
        <ele>737</ele>
      </trkpt>
      <trkpt lat="44.77577" lon="2.66906">
        <ele>736</ele>
      </trkpt>
      <trkpt lat="44.77576" lon="2.66908">
        <ele>736</ele>
      </trkpt>
      <trkpt lat="44.77543" lon="2.66919">
        <ele>737</ele>
      </trkpt>
      <trkpt lat="44.77517" lon="2.66932">
        <ele>737</ele>
      </trkpt>
      <trkpt lat="44.77481" lon="2.66943">
        <ele>737</ele>
      </trkpt>
      <trkpt lat="44.77475" lon="2.66963">
        <ele>738</ele>
      </trkpt>
      <trkpt lat="44.77466" lon="2.67015">
        <ele>739</ele>
      </trkpt>
      <trkpt lat="44.77439" lon="2.67082">
        <ele>739</ele>
      </trkpt>
      <trkpt lat="44.77423" lon="2.67091">
        <ele>738</ele>
      </trkpt>
      <trkpt lat="44.77404" lon="2.67091">
        <ele>739</ele>
      </trkpt>
      <trkpt lat="44.77393" lon="2.67117">
        <ele>739</ele>
      </trkpt>
      <trkpt lat="44.77371" lon="2.67183">
        <ele>733</ele>
      </trkpt>
      <trkpt lat="44.77309" lon="2.67237">
        <ele>736</ele>
      </trkpt>
      <trkpt lat="44.77271" lon="2.67265">
        <ele>728</ele>
      </trkpt>
      <trkpt lat="44.77254" lon="2.67276">
        <ele>728</ele>
      </trkpt>
      <trkpt lat="44.77174" lon="2.67316">
        <ele>720</ele>
      </trkpt>
      <trkpt lat="44.77174" lon="2.67316">
        <ele>720</ele>
      </trkpt>
      <trkpt lat="44.77147" lon="2.67323">
        <ele>719</ele>
      </trkpt>
      <trkpt lat="44.77099" lon="2.67333">
        <ele>715</ele>
      </trkpt>
      <trkpt lat="44.77072" lon="2.67335">
        <ele>704</ele>
      </trkpt>
      <trkpt lat="44.7703" lon="2.67342">
        <ele>696</ele>
      </trkpt>
      <trkpt lat="44.76992" lon="2.67342">
        <ele>691</ele>
      </trkpt>
      <trkpt lat="44.76955" lon="2.67336">
        <ele>683</ele>
      </trkpt>
      <trkpt lat="44.76916" lon="2.67326">
        <ele>685</ele>
      </trkpt>
      <trkpt lat="44.76874" lon="2.67297">
        <ele>687</ele>
      </trkpt>
      <trkpt lat="44.76845" lon="2.67284">
        <ele>687</ele>
      </trkpt>
      <trkpt lat="44.76827" lon="2.67287">
        <ele>677</ele>
      </trkpt>
      <trkpt lat="44.76815" lon="2.67289">
        <ele>676</ele>
      </trkpt>
      <trkpt lat="44.76786" lon="2.67291">
        <ele>673</ele>
      </trkpt>
      <trkpt lat="44.76766" lon="2.67278">
        <ele>673</ele>
      </trkpt>
      <trkpt lat="44.76708" lon="2.67198">
        <ele>666</ele>
      </trkpt>
      <trkpt lat="44.76698" lon="2.67192">
        <ele>665</ele>
      </trkpt>
      <trkpt lat="44.76667" lon="2.67195">
        <ele>663</ele>
      </trkpt>
      <trkpt lat="44.76652" lon="2.67192">
        <ele>651</ele>
      </trkpt>
      <trkpt lat="44.76652" lon="2.67192">
        <ele>651</ele>
      </trkpt>
      <trkpt lat="44.76632" lon="2.67181">
        <ele>649</ele>
      </trkpt>
      <trkpt lat="44.76615" lon="2.67162">
        <ele>649</ele>
      </trkpt>
      <trkpt lat="44.76612" lon="2.67135">
        <ele>648</ele>
      </trkpt>
      <trkpt lat="44.76619" lon="2.67112">
        <ele>648</ele>
      </trkpt>
      <trkpt lat="44.7663" lon="2.67097">
        <ele>648</ele>
      </trkpt>
      <trkpt lat="44.76646" lon="2.67081">
        <ele>645</ele>
      </trkpt>
      <trkpt lat="44.76651" lon="2.67079">
        <ele>646</ele>
      </trkpt>
      <trkpt lat="44.76654" lon="2.67072">
        <ele>646</ele>
      </trkpt>
      <trkpt lat="44.76651" lon="2.67068">
        <ele>645</ele>
      </trkpt>
      <trkpt lat="44.76643" lon="2.67066">
        <ele>643</ele>
      </trkpt>
      <trkpt lat="44.76609" lon="2.67072">
        <ele>638</ele>
      </trkpt>
      <trkpt lat="44.76542" lon="2.67114">
        <ele>628</ele>
      </trkpt>
      <trkpt lat="44.76527" lon="2.6713">
        <ele>627</ele>
      </trkpt>
      <trkpt lat="44.76519" lon="2.67145">
        <ele>626</ele>
      </trkpt>
      <trkpt lat="44.76519" lon="2.67158">
        <ele>625</ele>
      </trkpt>
      <trkpt lat="44.76516" lon="2.67165">
        <ele>625</ele>
      </trkpt>
      <trkpt lat="44.76512" lon="2.6717">
        <ele>621</ele>
      </trkpt>
      <trkpt lat="44.76512" lon="2.6717">
        <ele>621</ele>
      </trkpt>
      <trkpt lat="44.76502" lon="2.67166">
        <ele>621</ele>
      </trkpt>
      <trkpt lat="44.76495" lon="2.67152">
        <ele>613</ele>
      </trkpt>
      <trkpt lat="44.76487" lon="2.67136">
        <ele>608</ele>
      </trkpt>
      <trkpt lat="44.76486" lon="2.67126">
        <ele>607</ele>
      </trkpt>
      <trkpt lat="44.76487" lon="2.67112">
        <ele>607</ele>
      </trkpt>
      <trkpt lat="44.76489" lon="2.67102">
        <ele>608</ele>
      </trkpt>
      <trkpt lat="44.76529" lon="2.67054">
        <ele>612</ele>
      </trkpt>
      <trkpt lat="44.76564" lon="2.67019">
        <ele>613</ele>
      </trkpt>
      <trkpt lat="44.76573" lon="2.66996">
        <ele>607</ele>
      </trkpt>
      <trkpt lat="44.76573" lon="2.66989">
        <ele>605</ele>
      </trkpt>
      <trkpt lat="44.76569" lon="2.66983">
        <ele>603</ele>
      </trkpt>
      <trkpt lat="44.7656" lon="2.66957">
        <ele>598</ele>
      </trkpt>
      <trkpt lat="44.7656" lon="2.66932">
        <ele>598</ele>
      </trkpt>
      <trkpt lat="44.76565" lon="2.66896">
        <ele>592</ele>
      </trkpt>
      <trkpt lat="44.76573" lon="2.6686">
        <ele>590</ele>
      </trkpt>
      <trkpt lat="44.76581" lon="2.66848">
        <ele>593</ele>
      </trkpt>
      <trkpt lat="44.76582" lon="2.66832">
        <ele>598</ele>
      </trkpt>
      <trkpt lat="44.76582" lon="2.66832">
        <ele>598</ele>
      </trkpt>
      <trkpt lat="44.76578" lon="2.66749">
        <ele>583</ele>
      </trkpt>
      <trkpt lat="44.7658" lon="2.66726">
        <ele>572</ele>
      </trkpt>
      <trkpt lat="44.76579" lon="2.66708">
        <ele>567</ele>
      </trkpt>
      <trkpt lat="44.76589" lon="2.66648">
        <ele>583</ele>
      </trkpt>
      <trkpt lat="44.76595" lon="2.66627">
        <ele>584</ele>
      </trkpt>
      <trkpt lat="44.76615" lon="2.66579">
        <ele>569</ele>
      </trkpt>
      <trkpt lat="44.76614" lon="2.66573">
        <ele>569</ele>
      </trkpt>
      <trkpt lat="44.76609" lon="2.66574">
        <ele>567</ele>
      </trkpt>
      <trkpt lat="44.76603" lon="2.66581">
        <ele>566</ele>
      </trkpt>
      <trkpt lat="44.76575" lon="2.66648">
        <ele>560</ele>
      </trkpt>
      <trkpt lat="44.7656" lon="2.66702">
        <ele>563</ele>
      </trkpt>
      <trkpt lat="44.76537" lon="2.66756">
        <ele>567</ele>
      </trkpt>
      <trkpt lat="44.76526" lon="2.66776">
        <ele>565</ele>
      </trkpt>
      <trkpt lat="44.76512" lon="2.66812">
        <ele>564</ele>
      </trkpt>
      <trkpt lat="44.76497" lon="2.66844">
        <ele>550</ele>
      </trkpt>
      <trkpt lat="44.76492" lon="2.66863">
        <ele>547</ele>
      </trkpt>
      <trkpt lat="44.76489" lon="2.66882">
        <ele>549</ele>
      </trkpt>
      <trkpt lat="44.76489" lon="2.66882">
        <ele>549</ele>
      </trkpt>
      <trkpt lat="44.76491" lon="2.66898">
        <ele>553</ele>
      </trkpt>
      <trkpt lat="44.76483" lon="2.66929">
        <ele>563</ele>
      </trkpt>
      <trkpt lat="44.76474" lon="2.66942">
        <ele>562</ele>
      </trkpt>
      <trkpt lat="44.76442" lon="2.66955">
        <ele>557</ele>
      </trkpt>
      <trkpt lat="44.76415" lon="2.66962">
        <ele>536</ele>
      </trkpt>
      <trkpt lat="44.76389" lon="2.66969">
        <ele>534</ele>
      </trkpt>
      <trkpt lat="44.76377" lon="2.66977">
        <ele>532</ele>
      </trkpt>
      <trkpt lat="44.76369" lon="2.66983">
        <ele>531</ele>
      </trkpt>
      <trkpt lat="44.76345" lon="2.67014">
        <ele>540</ele>
      </trkpt>
      <trkpt lat="44.76309" lon="2.67064">
        <ele>524</ele>
      </trkpt>
      <trkpt lat="44.76292" lon="2.67089">
        <ele>530</ele>
      </trkpt>
      <trkpt lat="44.76269" lon="2.67128">
        <ele>527</ele>
      </trkpt>
      <trkpt lat="44.7625" lon="2.67158">
        <ele>522</ele>
      </trkpt>
      <trkpt lat="44.76241" lon="2.67175">
        <ele>512</ele>
      </trkpt>
      <trkpt lat="44.76231" lon="2.6723">
        <ele>509</ele>
      </trkpt>
      <trkpt lat="44.76226" lon="2.6726">
        <ele>508</ele>
      </trkpt>
      <trkpt lat="44.76222" lon="2.67266">
        <ele>506</ele>
      </trkpt>
      <trkpt lat="44.76222" lon="2.67266">
        <ele>506</ele>
      </trkpt>
      <trkpt lat="44.76218" lon="2.67265">
        <ele>505</ele>
      </trkpt>
      <trkpt lat="44.76215" lon="2.67255">
        <ele>505</ele>
      </trkpt>
      <trkpt lat="44.76212" lon="2.67243">
        <ele>505</ele>
      </trkpt>
      <trkpt lat="44.76211" lon="2.67208">
        <ele>503</ele>
      </trkpt>
      <trkpt lat="44.76211" lon="2.6718">
        <ele>502</ele>
      </trkpt>
      <trkpt lat="44.76218" lon="2.67142">
        <ele>494</ele>
      </trkpt>
      <trkpt lat="44.76234" lon="2.67079">
        <ele>489</ele>
      </trkpt>
      <trkpt lat="44.76255" lon="2.67026">
        <ele>504</ele>
      </trkpt>
      <trkpt lat="44.76281" lon="2.6695">
        <ele>492</ele>
      </trkpt>
      <trkpt lat="44.76289" lon="2.66921">
        <ele>491</ele>
      </trkpt>
      <trkpt lat="44.76303" lon="2.66902">
        <ele>481</ele>
      </trkpt>
      <trkpt lat="44.76316" lon="2.66877">
        <ele>479</ele>
      </trkpt>
      <trkpt lat="44.76317" lon="2.66871">
        <ele>478</ele>
      </trkpt>
      <trkpt lat="44.76316" lon="2.66866">
        <ele>477</ele>
      </trkpt>
      <trkpt lat="44.76309" lon="2.66865">
        <ele>476</ele>
      </trkpt>
      <trkpt lat="44.76301" lon="2.66873">
        <ele>475</ele>
      </trkpt>
      <trkpt lat="44.76279" lon="2.66901">
        <ele>474</ele>
      </trkpt>
      <trkpt lat="44.76279" lon="2.66901">
        <ele>474</ele>
      </trkpt>
      <trkpt lat="44.76268" lon="2.66918">
        <ele>482</ele>
      </trkpt>
      <trkpt lat="44.76255" lon="2.66945">
        <ele>485</ele>
      </trkpt>
      <trkpt lat="44.76227" lon="2.66979">
        <ele>465</ele>
      </trkpt>
      <trkpt lat="44.76212" lon="2.67002">
        <ele>472</ele>
      </trkpt>
      <trkpt lat="44.7618" lon="2.67031">
        <ele>465</ele>
      </trkpt>
      <trkpt lat="44.76156" lon="2.67089">
        <ele>454</ele>
      </trkpt>
      <trkpt lat="44.76141" lon="2.67127">
        <ele>449</ele>
      </trkpt>
      <trkpt lat="44.76128" lon="2.67148">
        <ele>448</ele>
      </trkpt>
      <trkpt lat="44.76095" lon="2.672">
        <ele>453</ele>
      </trkpt>
      <trkpt lat="44.76072" lon="2.6722">
        <ele>430</ele>
      </trkpt>
      <trkpt lat="44.76061" lon="2.67236">
        <ele>431</ele>
      </trkpt>
      <trkpt lat="44.76047" lon="2.67251">
        <ele>433</ele>
      </trkpt>
      <trkpt lat="44.7603" lon="2.67275">
        <ele>428</ele>
      </trkpt>
      <trkpt lat="44.76023" lon="2.67296">
        <ele>428</ele>
      </trkpt>
      <trkpt lat="44.76023" lon="2.67317">
        <ele>427</ele>
      </trkpt>
      <trkpt lat="44.76026" lon="2.6733">
        <ele>427</ele>
      </trkpt>
      <trkpt lat="44.76032" lon="2.67337">
        <ele>421</ele>
      </trkpt>
      <trkpt lat="44.76032" lon="2.67337">
        <ele>421</ele>
      </trkpt>
      <trkpt lat="44.76041" lon="2.6735">
        <ele>422</ele>
      </trkpt>
      <trkpt lat="44.76081" lon="2.67382">
        <ele>422</ele>
      </trkpt>
      <trkpt lat="44.76104" lon="2.6739">
        <ele>439</ele>
      </trkpt>
      <trkpt lat="44.76145" lon="2.67429">
        <ele>422</ele>
      </trkpt>
      <trkpt lat="44.76174" lon="2.67459">
        <ele>432</ele>
      </trkpt>
      <trkpt lat="44.76188" lon="2.67476">
        <ele>429</ele>
      </trkpt>
      <trkpt lat="44.76208" lon="2.67494">
        <ele>432</ele>
      </trkpt>
      <trkpt lat="44.76223" lon="2.67513">
        <ele>413</ele>
      </trkpt>
      <trkpt lat="44.76234" lon="2.67529">
        <ele>411</ele>
      </trkpt>
      <trkpt lat="44.76247" lon="2.67544">
        <ele>408</ele>
      </trkpt>
      <trkpt lat="44.76261" lon="2.6756">
        <ele>419</ele>
      </trkpt>
      <trkpt lat="44.76265" lon="2.67573">
        <ele>415</ele>
      </trkpt>
      <trkpt lat="44.76264" lon="2.67579">
        <ele>413</ele>
      </trkpt>
      <trkpt lat="44.76259" lon="2.67579">
        <ele>410</ele>
      </trkpt>
      <trkpt lat="44.76252" lon="2.67576">
        <ele>408</ele>
      </trkpt>
      <trkpt lat="44.76249" lon="2.67568">
        <ele>403</ele>
      </trkpt>
      <trkpt lat="44.76241" lon="2.67552">
        <ele>405</ele>
      </trkpt>
      <trkpt lat="44.76241" lon="2.67552">
        <ele>405</ele>
      </trkpt>
      <trkpt lat="44.76213" lon="2.67532">
        <ele>405</ele>
      </trkpt>
      <trkpt lat="44.76204" lon="2.67526">
        <ele>405</ele>
      </trkpt>
      <trkpt lat="44.76185" lon="2.67523">
        <ele>402</ele>
      </trkpt>
      <trkpt lat="44.7617" lon="2.67517">
        <ele>402</ele>
      </trkpt>
      <trkpt lat="44.76159" lon="2.67497">
        <ele>405</ele>
      </trkpt>
      <trkpt lat="44.76148" lon="2.67485">
        <ele>407</ele>
      </trkpt>
      <trkpt lat="44.76117" lon="2.67483">
        <ele>403</ele>
      </trkpt>
      <trkpt lat="44.76096" lon="2.67473">
        <ele>400</ele>
      </trkpt>
      <trkpt lat="44.76076" lon="2.67464">
        <ele>387</ele>
      </trkpt>
      <trkpt lat="44.76009" lon="2.67454">
        <ele>382</ele>
      </trkpt>
      <trkpt lat="44.75989" lon="2.6745">
        <ele>364</ele>
      </trkpt>
      <trkpt lat="44.7593" lon="2.6742">
        <ele>357</ele>
      </trkpt>
      <trkpt lat="44.75921" lon="2.67413">
        <ele>362</ele>
      </trkpt>
      <trkpt lat="44.75913" lon="2.67413">
        <ele>354</ele>
      </trkpt>
      <trkpt lat="44.75907" lon="2.67415">
        <ele>352</ele>
      </trkpt>
      <trkpt lat="44.75906" lon="2.67425">
        <ele>343</ele>
      </trkpt>
      <trkpt lat="44.75915" lon="2.67436">
        <ele>340</ele>
      </trkpt>
      <trkpt lat="44.75915" lon="2.67436">
        <ele>340</ele>
      </trkpt>
      <trkpt lat="44.75933" lon="2.67449">
        <ele>354</ele>
      </trkpt>
      <trkpt lat="44.75958" lon="2.67462">
        <ele>355</ele>
      </trkpt>
      <trkpt lat="44.75973" lon="2.67472">
        <ele>356</ele>
      </trkpt>
      <trkpt lat="44.75986" lon="2.67492">
        <ele>354</ele>
      </trkpt>
      <trkpt lat="44.76047" lon="2.6754">
        <ele>350</ele>
      </trkpt>
      <trkpt lat="44.76069" lon="2.67566">
        <ele>347</ele>
      </trkpt>
      <trkpt lat="44.761" lon="2.67598">
        <ele>343</ele>
      </trkpt>
      <trkpt lat="44.76133" lon="2.67642">
        <ele>340</ele>
      </trkpt>
      <trkpt lat="44.7615" lon="2.67661">
        <ele>339</ele>
      </trkpt>
      <trkpt lat="44.76158" lon="2.67676">
        <ele>330</ele>
      </trkpt>
      <trkpt lat="44.7617" lon="2.67692">
        <ele>336</ele>
      </trkpt>
      <trkpt lat="44.76169" lon="2.67696">
        <ele>335</ele>
      </trkpt>
      <trkpt lat="44.76156" lon="2.67686">
        <ele>326</ele>
      </trkpt>
      <trkpt lat="44.76089" lon="2.67614">
        <ele>340</ele>
      </trkpt>
      <trkpt lat="44.76051" lon="2.67576">
        <ele>345</ele>
      </trkpt>
      <trkpt lat="44.76018" lon="2.67551">
        <ele>344</ele>
      </trkpt>
      <trkpt lat="44.75985" lon="2.67542">
        <ele>329</ele>
      </trkpt>
      <trkpt lat="44.75985" lon="2.67542">
        <ele>329</ele>
      </trkpt>
      <trkpt lat="44.75947" lon="2.67509">
        <ele>328</ele>
      </trkpt>
      <trkpt lat="44.75927" lon="2.67482">
        <ele>342</ele>
      </trkpt>
      <trkpt lat="44.75913" lon="2.67471">
        <ele>328</ele>
      </trkpt>
      <trkpt lat="44.75883" lon="2.67446">
        <ele>329</ele>
      </trkpt>
      <trkpt lat="44.75869" lon="2.67427">
        <ele>327</ele>
      </trkpt>
      <trkpt lat="44.75859" lon="2.67406">
        <ele>334</ele>
      </trkpt>
      <trkpt lat="44.75855" lon="2.6739">
        <ele>336</ele>
      </trkpt>
      <trkpt lat="44.75855" lon="2.67375">
        <ele>338</ele>
      </trkpt>
      <trkpt lat="44.75862" lon="2.67354">
        <ele>340</ele>
      </trkpt>
      <trkpt lat="44.75872" lon="2.67298">
        <ele>353</ele>
      </trkpt>
      <trkpt lat="44.75874" lon="2.67276">
        <ele>355</ele>
      </trkpt>
      <trkpt lat="44.75869" lon="2.6726">
        <ele>355</ele>
      </trkpt>
      <trkpt lat="44.75866" lon="2.67245">
        <ele>366</ele>
      </trkpt>
      <trkpt lat="44.75855" lon="2.67241">
        <ele>364</ele>
      </trkpt>
      <trkpt lat="44.75844" lon="2.67247">
        <ele>359</ele>
      </trkpt>
      <trkpt lat="44.75835" lon="2.67266">
        <ele>352</ele>
      </trkpt>
      <trkpt lat="44.75831" lon="2.67286">
        <ele>337</ele>
      </trkpt>
      <trkpt lat="44.75831" lon="2.67286">
        <ele>337</ele>
      </trkpt>
      <trkpt lat="44.75822" lon="2.67299">
        <ele>334</ele>
      </trkpt>
      <trkpt lat="44.75795" lon="2.67307">
        <ele>332</ele>
      </trkpt>
      <trkpt lat="44.75781" lon="2.67299">
        <ele>332</ele>
      </trkpt>
      <trkpt lat="44.75771" lon="2.67278">
        <ele>334</ele>
      </trkpt>
      <trkpt lat="44.75726" lon="2.67208">
        <ele>337</ele>
      </trkpt>
      <trkpt lat="44.75709" lon="2.67177">
        <ele>337</ele>
      </trkpt>
      <trkpt lat="44.75707" lon="2.67153">
        <ele>351</ele>
      </trkpt>
      <trkpt lat="44.75702" lon="2.67072">
        <ele>372</ele>
      </trkpt>
      <trkpt lat="44.75659" lon="2.67025">
        <ele>352</ele>
      </trkpt>
      <trkpt lat="44.75609" lon="2.66968">
        <ele>360</ele>
      </trkpt>
      <trkpt lat="44.75569" lon="2.66914">
        <ele>356</ele>
      </trkpt>
      <trkpt lat="44.75543" lon="2.66872">
        <ele>353</ele>
      </trkpt>
      <trkpt lat="44.75519" lon="2.66845">
        <ele>350</ele>
      </trkpt>
      <trkpt lat="44.75497" lon="2.66811">
        <ele>339</ele>
      </trkpt>
      <trkpt lat="44.75529" lon="2.66732">
        <ele>371</ele>
      </trkpt>
      <trkpt lat="44.75525" lon="2.66718">
        <ele>373</ele>
      </trkpt>
      <trkpt lat="44.7548" lon="2.66686">
        <ele>358</ele>
      </trkpt>
      <trkpt lat="44.7548" lon="2.66686">
        <ele>358</ele>
      </trkpt>
      <trkpt lat="44.75444" lon="2.66671">
        <ele>351</ele>
      </trkpt>
      <trkpt lat="44.75433" lon="2.66664">
        <ele>361</ele>
      </trkpt>
      <trkpt lat="44.75424" lon="2.66651">
        <ele>362</ele>
      </trkpt>
      <trkpt lat="44.75419" lon="2.66639">
        <ele>366</ele>
      </trkpt>
      <trkpt lat="44.75411" lon="2.6661">
        <ele>349</ele>
      </trkpt>
      <trkpt lat="44.75403" lon="2.66534">
        <ele>363</ele>
      </trkpt>
      <trkpt lat="44.75391" lon="2.66472">
        <ele>370</ele>
      </trkpt>
      <trkpt lat="44.75386" lon="2.66417">
        <ele>371</ele>
      </trkpt>
      <trkpt lat="44.75402" lon="2.66351">
        <ele>376</ele>
      </trkpt>
      <trkpt lat="44.75432" lon="2.66304">
        <ele>400</ele>
      </trkpt>
      <trkpt lat="44.75434" lon="2.66293">
        <ele>401</ele>
      </trkpt>
      <trkpt lat="44.75426" lon="2.66282">
        <ele>401</ele>
      </trkpt>
      <trkpt lat="44.75353" lon="2.6627">
        <ele>380</ele>
      </trkpt>
      <trkpt lat="44.75335" lon="2.66256">
        <ele>381</ele>
      </trkpt>
      <trkpt lat="44.75317" lon="2.66231">
        <ele>385</ele>
      </trkpt>
      <trkpt lat="44.75295" lon="2.66187">
        <ele>391</ele>
      </trkpt>
      <trkpt lat="44.75265" lon="2.66136">
        <ele>416</ele>
      </trkpt>
      <trkpt lat="44.75265" lon="2.66136">
        <ele>416</ele>
      </trkpt>
      <trkpt lat="44.75245" lon="2.66107">
        <ele>404</ele>
      </trkpt>
      <trkpt lat="44.75214" lon="2.66084">
        <ele>399</ele>
      </trkpt>
      <trkpt lat="44.7518" lon="2.66063">
        <ele>416</ele>
      </trkpt>
      <trkpt lat="44.75138" lon="2.66047">
        <ele>398</ele>
      </trkpt>
      <trkpt lat="44.75083" lon="2.66006">
        <ele>390</ele>
      </trkpt>
      <trkpt lat="44.75072" lon="2.65986">
        <ele>391</ele>
      </trkpt>
      <trkpt lat="44.75066" lon="2.65967">
        <ele>389</ele>
      </trkpt>
      <trkpt lat="44.75071" lon="2.65876">
        <ele>406</ele>
      </trkpt>
      <trkpt lat="44.75069" lon="2.65863">
        <ele>408</ele>
      </trkpt>
      <trkpt lat="44.75064" lon="2.65848">
        <ele>410</ele>
      </trkpt>
      <trkpt lat="44.75048" lon="2.65825">
        <ele>407</ele>
      </trkpt>
      <trkpt lat="44.75025" lon="2.65791">
        <ele>400</ele>
      </trkpt>
      <trkpt lat="44.75017" lon="2.65772">
        <ele>396</ele>
      </trkpt>
      <trkpt lat="44.75025" lon="2.65742">
        <ele>400</ele>
      </trkpt>
      <trkpt lat="44.75049" lon="2.65693">
        <ele>410</ele>
      </trkpt>
      <trkpt lat="44.7505" lon="2.65677">
        <ele>410</ele>
      </trkpt>
      <trkpt lat="44.75045" lon="2.6566">
        <ele>421</ele>
      </trkpt>
      <trkpt lat="44.75045" lon="2.6566">
        <ele>421</ele>
      </trkpt>
      <trkpt lat="44.75009" lon="2.65641">
        <ele>416</ele>
      </trkpt>
      <trkpt lat="44.74949" lon="2.65629">
        <ele>401</ele>
      </trkpt>
      <trkpt lat="44.74921" lon="2.65604">
        <ele>406</ele>
      </trkpt>
      <trkpt lat="44.74903" lon="2.65578">
        <ele>408</ele>
      </trkpt>
      <trkpt lat="44.7488" lon="2.6553">
        <ele>408</ele>
      </trkpt>
      <trkpt lat="44.74867" lon="2.65473">
        <ele>424</ele>
      </trkpt>
      <trkpt lat="44.74844" lon="2.65393">
        <ele>429</ele>
      </trkpt>
      <trkpt lat="44.74837" lon="2.65332">
        <ele>423</ele>
      </trkpt>
      <trkpt lat="44.74824" lon="2.65251">
        <ele>412</ele>
      </trkpt>
      <trkpt lat="44.74812" lon="2.65196">
        <ele>394</ele>
      </trkpt>
      <trkpt lat="44.74814" lon="2.65163">
        <ele>390</ele>
      </trkpt>
      <trkpt lat="44.74853" lon="2.6514">
        <ele>415</ele>
      </trkpt>
      <trkpt lat="44.7487" lon="2.65117">
        <ele>417</ele>
      </trkpt>
      <trkpt lat="44.74871" lon="2.651">
        <ele>416</ele>
      </trkpt>
      <trkpt lat="44.74849" lon="2.65067">
        <ele>410</ele>
      </trkpt>
      <trkpt lat="44.74822" lon="2.65031">
        <ele>388</ele>
      </trkpt>
      <trkpt lat="44.74801" lon="2.65001">
        <ele>386</ele>
      </trkpt>
      <trkpt lat="44.74801" lon="2.65001">
        <ele>386</ele>
      </trkpt>
      <trkpt lat="44.74786" lon="2.64967">
        <ele>388</ele>
      </trkpt>
      <trkpt lat="44.74783" lon="2.64929">
        <ele>388</ele>
      </trkpt>
      <trkpt lat="44.7482" lon="2.64764">
        <ele>404</ele>
      </trkpt>
      <trkpt lat="44.7482" lon="2.64736">
        <ele>412</ele>
      </trkpt>
      <trkpt lat="44.74804" lon="2.64701">
        <ele>414</ele>
      </trkpt>
      <trkpt lat="44.74774" lon="2.64663">
        <ele>426</ele>
      </trkpt>
      <trkpt lat="44.74749" lon="2.6464">
        <ele>405</ele>
      </trkpt>
      <trkpt lat="44.74732" lon="2.64581">
        <ele>430</ele>
      </trkpt>
      <trkpt lat="44.74712" lon="2.64495">
        <ele>441</ele>
      </trkpt>
      <trkpt lat="44.7471" lon="2.64464">
        <ele>444</ele>
      </trkpt>
      <trkpt lat="44.74693" lon="2.64431">
        <ele>442</ele>
      </trkpt>
      <trkpt lat="44.74691" lon="2.64392">
        <ele>463</ele>
      </trkpt>
      <trkpt lat="44.7468" lon="2.64371">
        <ele>466</ele>
      </trkpt>
      <trkpt lat="44.74626" lon="2.64336">
        <ele>439</ele>
      </trkpt>
      <trkpt lat="44.74588" lon="2.64251">
        <ele>466</ele>
      </trkpt>
      <trkpt lat="44.74553" lon="2.64183">
        <ele>472</ele>
      </trkpt>
      <trkpt lat="44.745" lon="2.64137">
        <ele>482</ele>
      </trkpt>
      <trkpt lat="44.745" lon="2.64137">
        <ele>482</ele>
      </trkpt>
      <trkpt lat="44.74471" lon="2.64121">
        <ele>486</ele>
      </trkpt>
      <trkpt lat="44.74435" lon="2.64109">
        <ele>487</ele>
      </trkpt>
      <trkpt lat="44.74413" lon="2.64087">
        <ele>492</ele>
      </trkpt>
      <trkpt lat="44.74377" lon="2.64048">
        <ele>505</ele>
      </trkpt>
      <trkpt lat="44.74361" lon="2.64047">
        <ele>504</ele>
      </trkpt>
      <trkpt lat="44.74338" lon="2.64047">
        <ele>503</ele>
      </trkpt>
      <trkpt lat="44.74316" lon="2.64041">
        <ele>500</ele>
      </trkpt>
      <trkpt lat="44.74303" lon="2.64028">
        <ele>502</ele>
      </trkpt>
      <trkpt lat="44.74294" lon="2.64013">
        <ele>504</ele>
      </trkpt>
      <trkpt lat="44.74277" lon="2.63997">
        <ele>522</ele>
      </trkpt>
      <trkpt lat="44.74277" lon="2.63988">
        <ele>523</ele>
      </trkpt>
      <trkpt lat="44.74294" lon="2.63981">
        <ele>525</ele>
      </trkpt>
      <trkpt lat="44.743" lon="2.63979">
        <ele>525</ele>
      </trkpt>
      <trkpt lat="44.74308" lon="2.63967">
        <ele>527</ele>
      </trkpt>
      <trkpt lat="44.74299" lon="2.63961">
        <ele>528</ele>
      </trkpt>
      <trkpt lat="44.74277" lon="2.6396">
        <ele>528</ele>
      </trkpt>
      <trkpt lat="44.7425" lon="2.63963">
        <ele>517</ele>
      </trkpt>
      <trkpt lat="44.7425" lon="2.63963">
        <ele>517</ele>
      </trkpt>
      <trkpt lat="44.74228" lon="2.63961">
        <ele>516</ele>
      </trkpt>
      <trkpt lat="44.74208" lon="2.63943">
        <ele>516</ele>
      </trkpt>
      <trkpt lat="44.74182" lon="2.63896">
        <ele>531</ele>
      </trkpt>
      <trkpt lat="44.74135" lon="2.63789">
        <ele>530</ele>
      </trkpt>
      <trkpt lat="44.74117" lon="2.63734">
        <ele>545</ele>
      </trkpt>
      <trkpt lat="44.74103" lon="2.63689">
        <ele>551</ele>
      </trkpt>
      <trkpt lat="44.74079" lon="2.63652">
        <ele>545</ele>
      </trkpt>
      <trkpt lat="44.74041" lon="2.63622">
        <ele>536</ele>
      </trkpt>
      <trkpt lat="44.74033" lon="2.63617">
        <ele>535</ele>
      </trkpt>
      <trkpt lat="44.74037" lon="2.63603">
        <ele>536</ele>
      </trkpt>
      <trkpt lat="44.74048" lon="2.63607">
        <ele>537</ele>
      </trkpt>
      <trkpt lat="44.74062" lon="2.63613">
        <ele>539</ele>
      </trkpt>
      <trkpt lat="44.7407" lon="2.63611">
        <ele>540</ele>
      </trkpt>
      <trkpt lat="44.74067" lon="2.63597">
        <ele>540</ele>
      </trkpt>
      <trkpt lat="44.73972" lon="2.63522">
        <ele>526</ele>
        <time>2018-04-19T05:51:47Z</time>
      </trkpt>
      <trkpt lat="44.74049" lon="2.63522">
        <ele>526</ele>
        <time>2018-04-19T05:52:47Z</time>
      </trkpt>
      <trkpt lat="44.7421" lon="2.635">
        <ele>497</ele>
        <time>2018-04-19T05:53:47Z</time>
      </trkpt>
      <trkpt lat="44.74344" lon="2.63367">
        <ele>503</ele>
        <time>2018-04-19T05:54:47Z</time>
      </trkpt>
      <trkpt lat="44.7439" lon="2.63273">
        <ele>501</ele>
        <time>2018-04-19T05:55:47Z</time>
      </trkpt>
      <trkpt lat="44.74225" lon="2.63281">
        <ele>492</ele>
        <time>2018-04-19T05:56:47Z</time>
      </trkpt>
      <trkpt lat="44.74137" lon="2.63097">
        <ele>520</ele>
        <time>2018-04-19T05:57:47Z</time>
      </trkpt>
      <trkpt lat="44.74079" lon="2.62848">
        <ele>543</ele>
        <time>2018-04-19T05:58:47Z</time>
      </trkpt>
      <trkpt lat="44.7407" lon="2.62723">
        <ele>528</ele>
        <time>2018-04-19T05:59:47Z</time>
      </trkpt>
      <trkpt lat="44.74036" lon="2.62603">
        <ele>517</ele>
        <time>2018-04-19T06:00:47Z</time>
      </trkpt>
      <trkpt lat="44.73948" lon="2.62518">
        <ele>479</ele>
        <time>2018-04-19T06:01:47Z</time>
      </trkpt>
      <trkpt lat="44.7396" lon="2.62376">
        <ele>523</ele>
        <time>2018-04-19T06:02:47Z</time>
      </trkpt>
      <trkpt lat="44.73899" lon="2.62389">
        <ele>493</ele>
        <time>2018-04-19T06:03:47Z</time>
      </trkpt>
      <trkpt lat="44.73866" lon="2.62324">
        <ele>516</ele>
        <time>2018-04-19T06:04:47Z</time>
      </trkpt>
      <trkpt lat="44.73875" lon="2.62256">
        <ele>529</ele>
        <time>2018-04-19T06:05:47Z</time>
      </trkpt>
      <trkpt lat="44.73872" lon="2.62204">
        <ele>550</ele>
        <time>2018-04-19T06:06:47Z</time>
      </trkpt>
      <trkpt lat="44.7385" lon="2.62161">
        <ele>565</ele>
        <time>2018-04-19T06:07:47Z</time>
      </trkpt>
      <trkpt lat="44.73695" lon="2.62114">
        <ele>536</ele>
        <time>2018-04-19T06:08:47Z</time>
      </trkpt>
      <trkpt lat="44.736" lon="2.62123">
        <ele>510</ele>
        <time>2018-04-19T06:09:47Z</time>
      </trkpt>
      <trkpt lat="44.73585" lon="2.6202">
        <ele>511</ele>
        <time>2018-04-19T06:10:47Z</time>
      </trkpt>
      <trkpt lat="44.73564" lon="2.61814">
        <ele>488</ele>
        <time>2018-04-19T06:11:47Z</time>
      </trkpt>
      <trkpt lat="44.73521" lon="2.61754">
        <ele>476</ele>
        <time>2018-04-19T06:12:47Z</time>
      </trkpt>
      <trkpt lat="44.73542" lon="2.61655">
        <ele>484</ele>
        <time>2018-04-19T06:13:47Z</time>
      </trkpt>
      <trkpt lat="44.73588" lon="2.61462">
        <ele>512</ele>
        <time>2018-04-19T06:14:47Z</time>
      </trkpt>
      <trkpt lat="44.73619" lon="2.61354">
        <ele>521</ele>
        <time>2018-04-19T06:15:47Z</time>
      </trkpt>
      <trkpt lat="44.7353" lon="2.6138">
        <ele>514</ele>
        <time>2018-04-19T06:16:47Z</time>
      </trkpt>
      <trkpt lat="44.73399" lon="2.6144">
        <ele>502</ele>
        <time>2018-04-19T06:17:47Z</time>
      </trkpt>
      <trkpt lat="44.73384" lon="2.6141">
        <ele>511</ele>
        <time>2018-04-19T06:18:47Z</time>
      </trkpt>
      <trkpt lat="44.73338" lon="2.61427">
        <ele>501</ele>
        <time>2018-04-19T06:19:47Z</time>
      </trkpt>
      <trkpt lat="44.73338" lon="2.61221">
        <ele>510</ele>
        <time>2018-04-19T06:20:47Z</time>
      </trkpt>
      <trkpt lat="44.73253" lon="2.60955">
        <ele>483</ele>
        <time>2018-04-19T06:21:47Z</time>
      </trkpt>
      <trkpt lat="44.73204" lon="2.60814">
        <ele>440</ele>
        <time>2018-04-19T06:22:47Z</time>
      </trkpt>
      <trkpt lat="44.73232" lon="2.60715">
        <ele>444</ele>
        <time>2018-04-19T06:23:47Z</time>
      </trkpt>
      <trkpt lat="44.73161" lon="2.60509">
        <ele>442</ele>
        <time>2018-04-19T06:24:47Z</time>
      </trkpt>
      <trkpt lat="44.73027" lon="2.60492">
        <ele>412</ele>
        <time>2018-04-19T06:25:47Z</time>
      </trkpt>
      <trkpt lat="44.72966" lon="2.60346">
        <ele>406</ele>
        <time>2018-04-19T06:26:47Z</time>
      </trkpt>
      <trkpt lat="44.72902" lon="2.60402">
        <ele>393</ele>
        <time>2018-04-19T06:27:47Z</time>
      </trkpt>
      <trkpt lat="44.72777" lon="2.60432">
        <ele>370</ele>
        <time>2018-04-19T06:28:47Z</time>
      </trkpt>
      <trkpt lat="44.72573" lon="2.60346">
        <ele>403</ele>
        <time>2018-04-19T06:29:47Z</time>
      </trkpt>
      <trkpt lat="44.72564" lon="2.60342">
        <ele>403</ele>
      </trkpt>
      <trkpt lat="44.72564" lon="2.60342">
        <ele>403</ele>
      </trkpt>
      <trkpt lat="44.72316" lon="2.60124">
        <ele>501</ele>
      </trkpt>
      <trkpt lat="44.72273" lon="2.60154">
        <ele>499</ele>
      </trkpt>
      <trkpt lat="44.72189" lon="2.60146">
        <ele>509</ele>
      </trkpt>
      <trkpt lat="44.72064" lon="2.60182">
        <ele>503</ele>
      </trkpt>
      <trkpt lat="44.71919" lon="2.60196">
        <ele>504</ele>
      </trkpt>
      <trkpt lat="44.71849" lon="2.6024">
        <ele>501</ele>
      </trkpt>
      <trkpt lat="44.7173" lon="2.6021">
        <ele>505</ele>
      </trkpt>
      <trkpt lat="44.71692" lon="2.60153">
        <ele>519</ele>
      </trkpt>
      <trkpt lat="44.71602" lon="2.59886">
        <ele>561</ele>
      </trkpt>
      <trkpt lat="44.71374" lon="2.59845">
        <ele>538</ele>
      </trkpt>
      <trkpt lat="44.71376" lon="2.59845">
        <ele>538</ele>
      </trkpt>
      <trkpt lat="44.71318" lon="2.59752">
        <ele>561</ele>
      </trkpt>
      <trkpt lat="44.71309" lon="2.59709">
        <ele>579</ele>
      </trkpt>
      <trkpt lat="44.71257" lon="2.59744">
        <ele>569</ele>
      </trkpt>
      <trkpt lat="44.71237" lon="2.59743">
        <ele>570</ele>
      </trkpt>
      <trkpt lat="44.71232" lon="2.59722">
        <ele>575</ele>
      </trkpt>
      <trkpt lat="44.71276" lon="2.59667">
        <ele>585</ele>
      </trkpt>
      <trkpt lat="44.71328" lon="2.59667">
        <ele>592</ele>
      </trkpt>
      <trkpt lat="44.71363" lon="2.59736">
        <ele>584</ele>
      </trkpt>
      <trkpt lat="44.71441" lon="2.59737">
        <ele>595</ele>
      </trkpt>
      <trkpt lat="44.71442" lon="2.59737">
        <ele>595</ele>
      </trkpt>
      <trkpt lat="44.71583" lon="2.59719">
        <ele>604</ele>
      </trkpt>
      <trkpt lat="44.71525" lon="2.59666">
        <ele>627</ele>
      </trkpt>
      <trkpt lat="44.71422" lon="2.59663">
        <ele>618</ele>
      </trkpt>
      <trkpt lat="44.71393" lon="2.59627">
        <ele>615</ele>
      </trkpt>
      <trkpt lat="44.71367" lon="2.59443">
        <ele>644</ele>
      </trkpt>
      <trkpt lat="44.71316" lon="2.59455">
        <ele>644</ele>
      </trkpt>
      <trkpt lat="44.7124" lon="2.59496">
        <ele>645</ele>
      </trkpt>
      <trkpt lat="44.71194" lon="2.59463">
        <ele>649</ele>
      </trkpt>
      <trkpt lat="44.71126" lon="2.59329">
        <ele>669</ele>
      </trkpt>
      <trkpt lat="44.71095" lon="2.59255">
        <ele>671</ele>
      </trkpt>
      <trkpt lat="44.71095" lon="2.59255">
        <ele>671</ele>
      </trkpt>
      <trkpt lat="44.71064" lon="2.5922">
        <ele>673</ele>
        <time>2018-04-26T19:07:44Z</time>
      </trkpt>
    </trkseg>
  </trk>
</gpx>